| time (UTC) | temp C | wind direction | speed KPH | gust KPH | rain 1hr cm | rain 24hr cm | rain mn cm | humidity % | barometer mb |
| 20260510043231 | 12 | 309 | 0.0 | 3.2 | 0.03 | 0.10 | 0.10 | 91 | 1009.7 |
| 20260510043144 | 8 | 119 | 0.0 | 3.2 | 0.00 | 0.10 | 0.10 | 90 | 1009.3 |
| 20260510043041 | 8 | 119 | 0.0 | 3.2 | 0.00 | 0.10 | 0.10 | 90 | 1009.3 |
| 20260510042951 | 8 | 221 | 0.0 | 3.2 | 0.00 | 0.10 | 0.10 | 90 | 1009.3 |
| 20260510042912 | 8 | 221 | 1.6 | 3.2 | 0.00 | 0.10 | 0.10 | 90 | 1009.3 |
| 20260510042640 | 8 | 137 | 1.6 | 3.2 | 0.00 | 0.10 | 0.10 | 90 | 1009.4 |
| 20260510042558 | 8 | 221 | 1.6 | 3.2 | 0.00 | 0.10 | 0.10 | 90 | 1009.4 |
| 20260510042512 | 8 | 205 | 1.6 | 3.2 | 0.00 | 0.10 | 0.10 | 90 | 1009.4 |
| 20260510042434 | 8 | 209 | 1.6 | 3.2 | 0.00 | 0.10 | 0.10 | 90 | 1009.4 |
| 20260510042353 | 8 | 221 | 0.0 | 3.2 | 0.00 | 0.10 | 0.10 | 90 | 1009.4 |
| 20260510042310 | 8 | 67 | 0.0 | 3.2 | 0.00 | 0.10 | 0.10 | 90 | 1009.3 |
| 20260510042102 | 8 | 146 | 1.6 | 3.2 | 0.00 | 0.10 | 0.10 | 90 | 1009.3 |
| 20260510041729 | 12 | 51 | 1.6 | 4.8 | 0.03 | 0.10 | 0.10 | 91 | 1009.8 |
| 20260510041715 | 8 | 178 | 1.6 | 3.2 | 0.00 | 0.10 | 0.10 | 90 | 1009.3 |
| 20260510041648 | 12 | 93 | 1.6 | 4.8 | 0.03 | 0.10 | 0.10 | 91 | 1009.8 |
| 20260510041613 | 9 | 146 | 1.6 | 3.2 | 0.00 | 0.10 | 0.10 | 90 | 1009.3 |
| 20260510041547 | 12 | 51 | 1.6 | 6.4 | 0.03 | 0.10 | 0.10 | 91 | 1009.8 |
| 20260510041523 | 12 | 59 | 1.6 | 8.0 | 0.05 | 0.10 | 0.10 | 91 | 1009.8 |
| 20260510041512 | 9 | 51 | 1.6 | 3.2 | 0.00 | 0.10 | 0.10 | 90 | 1009.3 |
| 20260510041446 | 12 | 93 | 3.2 | 8.0 | 0.05 | 0.10 | 0.10 | 91 | 1009.7 |
| 20260510041412 | 9 | 178 | 1.6 | 3.2 | 0.00 | 0.10 | 0.10 | 90 | 1009.3 |
| 20260510041317 | 9 | 212 | 0.0 | 3.2 | 0.00 | 0.10 | 0.10 | 90 | 1009.3 |
| 20260510041237 | 9 | 153 | 0.0 | 3.2 | 0.00 | 0.10 | 0.10 | 90 | 1009.4 |
| 20260510040951 | 9 | 265 | 0.0 | 3.2 | 0.00 | 0.10 | 0.10 | 90 | 1009.4 |
| 20260510040852 | 9 | 265 | 1.6 | 3.2 | 0.00 | 0.10 | 0.10 | 90 | 1009.4 |
| 20260510040810 | 9 | 178 | 1.6 | 3.2 | 0.00 | 0.10 | 0.10 | 90 | 1009.4 |
| 20260510040733 | 9 | 178 | 1.6 | 3.2 | 0.00 | 0.10 | 0.10 | 90 | 1009.4 |
| 20260510040648 | 9 | 105 | 0.0 | 3.2 | 0.00 | 0.10 | 0.10 | 90 | 1009.4 |
| 20260510040437 | 9 | 9 | 0.0 | 3.2 | 0.00 | 0.10 | 0.10 | 90 | 1009.4 |
| 20260510040244 | 9 | 9 | 0.0 | 3.2 | 0.00 | 0.10 | 0.10 | 90 | 1009.4 |
| 20260510040205 | 9 | 221 | 0.0 | 3.2 | 0.00 | 0.10 | 0.10 | 90 | 1009.4 |
| 20260510040119 | 9 | 221 | 0.0 | 3.2 | 0.00 | 0.10 | 0.10 | 90 | 1009.5 |
| 20260510040028 | 9 | 221 | 1.6 | 3.2 | 0.00 | 0.10 | 0.10 | 90 | 1009.5 |
| 20260510035946 | 9 | 178 | 1.6 | 3.2 | 0.00 | 0.10 | 0.10 | 90 | 1009.5 |
| 20260510035730 | 9 | 178 | 1.6 | 3.2 | 0.00 | 0.10 | 0.10 | 90 | 1009.5 |
| 20260510035628 | 9 | 146 | 1.6 | 3.2 | 0.00 | 0.10 | 0.10 | 90 | 1009.5 |
| 20260510035524 | 9 | 126 | 1.6 | 3.2 | 0.00 | 0.10 | 0.10 | 90 | 1009.5 |
| 20260510035421 | 9 | 126 | 0.0 | 3.2 | 0.00 | 0.10 | 0.10 | 90 | 1009.5 |
| 20260510035406 | 12 | 26 | 1.6 | 9.7 | 0.08 | 0.08 | 0.08 | 90 | 1010.0 |
| 20260510035335 | 9 | 161 | 1.6 | 3.2 | 0.00 | 0.10 | 0.10 | 90 | 1009.5 |
| 20260510035306 | 9 | 146 | 1.6 | 3.2 | 0.00 | 0.10 | 0.10 | 90 | 1009.5 |
| 20260510035224 | 9 | 129 | 0.0 | 3.2 | 0.00 | 0.10 | 0.10 | 90 | 1009.5 |
| 20260510035005 | 9 | 325 | 1.6 | 3.2 | 0.00 | 0.10 | 0.10 | 90 | 1009.6 |
| 20260510034934 | 9 | 325 | 1.6 | 3.2 | 0.00 | 0.10 | 0.10 | 90 | 1009.6 |
| 20260510034712 | 9 | 221 | 0.0 | 3.2 | 0.00 | 0.10 | 0.10 | 90 | 1009.5 |
| 20260510034633 | 9 | 9 | 0.0 | 3.2 | 0.00 | 0.10 | 0.10 | 90 | 1009.5 |
| 20260510034209 | 10 | 137 | 1.6 | 3.2 | 0.00 | 0.10 | 0.10 | 90 | 1009.6 |
| 20260510034115 | 10 | 137 | 1.6 | 3.2 | 0.00 | 0.10 | 0.10 | 90 | 1009.5 |
| 20260510034035 | 10 | 196 | 1.6 | 3.2 | 0.00 | 0.10 | 0.10 | 90 | 1009.5 |
| 20260510033955 | 10 | 188 | 1.6 | 3.2 | 0.00 | 0.10 | 0.10 | 90 | 1009.5 |
| 20260510033803 | 10 | 146 | 0.0 | 3.2 | 0.00 | 0.10 | 0.10 | 90 | 1009.6 |
| 20260510033705 | 10 | 153 | 1.6 | 3.2 | 0.00 | 0.10 | 0.10 | 90 | 1009.5 |
| 20260510033625 | 10 | 126 | 1.6 | 3.2 | 0.00 | 0.10 | 0.10 | 90 | 1009.5 |
| 20260510033550 | 10 | 93 | 1.6 | 3.2 | 0.00 | 0.10 | 0.10 | 89 | 1009.5 |
| 20260510033332 | 12 | 119 | 1.6 | 6.4 | 0.08 | 0.08 | 0.08 | 90 | 1010.3 |
| 20260510033255 | 10 | 93 | 0.0 | 3.2 | 0.00 | 0.10 | 0.10 | 89 | 1009.5 |
| 20260510033154 | 10 | 119 | 0.0 | 3.2 | 0.00 | 0.10 | 0.10 | 89 | 1009.6 |
| 20260510033056 | 10 | 126 | 0.0 | 3.2 | 0.00 | 0.10 | 0.10 | 89 | 1009.5 |
| 20260510033030 | 12 | 133 | 3.2 | 8.0 | 0.08 | 0.08 | 0.08 | 89 | 1010.2 |
| 20260510032953 | 10 | 205 | 0.0 | 3.2 | 0.00 | 0.10 | 0.10 | 89 | 1009.6 |
| 20260510032854 | 10 | 232 | 0.0 | 3.2 | 0.00 | 0.10 | 0.10 | 89 | 1009.6 |
| 20260510032839 | 12 | 178 | 3.2 | 8.0 | 0.08 | 0.08 | 0.08 | 89 | 1010.3 |
| 20260510032751 | 10 | 111 | 0.0 | 3.2 | 0.00 | 0.10 | 0.10 | 90 | 1009.6 |
| 20260510032703 | 10 | 111 | 0.0 | 3.2 | 0.00 | 0.10 | 0.10 | 90 | 1009.6 |
| 20260510032624 | 10 | 93 | 1.6 | 3.2 | 0.00 | 0.10 | 0.10 | 90 | 1009.6 |
| 20260510032407 | 10 | 200 | 1.6 | 3.2 | 0.00 | 0.10 | 0.10 | 90 | 1009.6 |
| 20260510032328 | 10 | 196 | 1.6 | 3.2 | 0.00 | 0.10 | 0.10 | 90 | 1009.7 |
| 20260510032246 | 10 | 205 | 1.6 | 3.2 | 0.00 | 0.10 | 0.10 | 90 | 1009.6 |
| 20260510032028 | 10 | 250 | 1.6 | 3.2 | 0.00 | 0.10 | 0.10 | 89 | 1009.7 |
| 20260510031950 | 10 | 221 | 1.6 | 3.2 | 0.00 | 0.10 | 0.10 | 89 | 1009.6 |
| 20260510031858 | 10 | 247 | 0.0 | 3.2 | 0.00 | 0.10 | 0.10 | 89 | 1009.7 |
| 20260510031636 | 10 | 153 | 0.0 | 3.2 | 0.00 | 0.10 | 0.10 | 89 | 1009.7 |
| 20260510031423 | 10 | 221 | 0.0 | 3.2 | 0.00 | 0.10 | 0.10 | 89 | 1009.7 |
| 20260510031229 | 10 | 9 | 1.6 | 3.2 | 0.00 | 0.10 | 0.10 | 89 | 1009.7 |
| 20260510031129 | 10 | 178 | 1.6 | 3.2 | 0.00 | 0.10 | 0.10 | 89 | 1009.7 |
| 20260510031027 | 10 | 212 | 1.6 | 3.2 | 0.00 | 0.10 | 0.10 | 89 | 1009.7 |
| 20260510030937 | 12 | 188 | 3.2 | 4.8 | 0.05 | 0.05 | 0.05 | 88 | 1010.6 |
| 20260510030925 | 10 | 221 | 1.6 | 3.2 | 0.00 | 0.10 | 0.10 | 89 | 1009.7 |
| 20260510030822 | 10 | 221 | 1.6 | 3.2 | 0.00 | 0.10 | 0.10 | 89 | 1009.7 |
| 20260510030724 | 10 | 205 | 3.2 | 3.2 | 0.00 | 0.10 | 0.10 | 89 | 1009.7 |
| 20260510030713 | 12 | 119 | 0.0 | 4.8 | 0.03 | 0.03 | 0.05 | 88 | 1010.7 |
| 20260510030620 | 10 | 200 | 3.2 | 3.2 | 0.00 | 0.10 | 0.10 | 89 | 1009.7 |
| 20260510030533 | 10 | 205 | 1.6 | 3.2 | 0.00 | 0.10 | 0.10 | 89 | 1009.7 |
| 20260510030453 | 10 | 200 | 1.6 | 3.2 | 0.00 | 0.10 | 0.10 | 89 | 1009.7 |
| 20260510030357 | 10 | 196 | 1.6 | 3.2 | 0.00 | 0.10 | 0.10 | 89 | 1009.7 |
| 20260510030305 | 10 | 205 | 1.6 | 3.2 | 0.00 | 0.10 | 0.10 | 89 | 1009.6 |
| 20260510030033 | 10 | 205 | 1.6 | 3.2 | 0.00 | 0.10 | 0.10 | 89 | 1009.7 |
| 20260510025955 | 10 | 205 | 0.0 | 3.2 | 0.00 | 0.10 | 0.10 | 89 | 1009.7 |
| 20260510025913 | 10 | 325 | 0.0 | 3.2 | 0.00 | 0.10 | 0.10 | 89 | 1009.7 |
| 20260510025832 | 10 | 265 | 1.6 | 3.2 | 0.00 | 0.10 | 0.10 | 89 | 1009.7 |
| 20260510025613 | 10 | 301 | 1.6 | 3.2 | 0.00 | 0.10 | 0.10 | 89 | 1009.8 |
| 20260510025351 | 11 | 321 | 1.6 | 3.2 | 0.00 | 0.10 | 0.10 | 89 | 1009.7 |
| 20260510025129 | 11 | 319 | 1.6 | 3.2 | 0.00 | 0.10 | 0.10 | 89 | 1009.8 |
| 20260510025050 | 11 | 325 | 1.6 | 3.2 | 0.00 | 0.10 | 0.10 | 89 | 1009.8 |
| 20260510024807 | 11 | 229 | 0.0 | 3.2 | 0.00 | 0.10 | 0.10 | 89 | 1009.8 |
| 20260510024705 | 11 | 232 | 0.0 | 3.2 | 0.00 | 0.10 | 0.10 | 89 | 1009.7 |
| 20260510024604 | 11 | 334 | 1.6 | 3.2 | 0.00 | 0.10 | 0.10 | 89 | 1009.7 |
| 20260510024521 | 11 | 9 | 1.6 | 3.2 | 0.00 | 0.10 | 0.10 | 89 | 1009.8 |
| 20260510024443 | 11 | 41 | 1.6 | 3.2 | 0.00 | 0.10 | 0.10 | 89 | 1009.7 |
| 20260510024215 | 12 | 265 | 1.6 | 4.8 | 0.00 | 0.00 | 0.00 | 88 | 1010.7 |
| 20260510024159 | 11 | 41 | 1.6 | 3.2 | 0.00 | 0.10 | 0.10 | 89 | 1009.7 |
| 20260510024059 | 11 | 44 | 1.6 | 3.2 | 0.00 | 0.10 | 0.10 | 90 | 1009.7 |
| 20260510024001 | 11 | 44 | 1.6 | 3.2 | 0.00 | 0.10 | 0.10 | 90 | 1009.7 |
| 20260510023932 | 12 | 129 | 1.6 | 9.7 | 0.00 | 0.00 | 0.00 | 87 | 1010.7 |
| 20260510023857 | 11 | 51 | 1.6 | 1.6 | 0.00 | 0.10 | 0.10 | 90 | 1009.7 |
| 20260510023825 | 12 | 59 | 3.2 | 9.7 | 0.00 | 0.00 | 0.00 | 87 | 1010.6 |
| 20260510023758 | 11 | 26 | 1.6 | 1.6 | 0.00 | 0.10 | 0.10 | 90 | 1009.7 |
| 20260510023723 | 12 | 56 | 6.4 | 9.7 | 0.00 | 0.00 | 0.00 | 87 | 1010.5 |
| 20260510023704 | 11 | 51 | 0.0 | 1.6 | 0.00 | 0.10 | 0.10 | 90 | 1009.6 |
| 20260510023621 | 11 | 41 | 0.0 | 1.6 | 0.00 | 0.10 | 0.10 | 90 | 1009.7 |
| 20260510023359 | 12 | 79 | 3.2 | 4.8 | 0.00 | 0.00 | 0.00 | 87 | 1010.6 |
| 20260510023332 | 11 | 137 | 0.0 | 1.6 | 0.00 | 0.10 | 0.10 | 90 | 1009.7 |
| 20260510023232 | 11 | 196 | 0.0 | 1.6 | 0.00 | 0.10 | 0.10 | 90 | 1009.7 |
| 20260510023210 | 12 | 93 | 1.6 | 6.4 | 0.00 | 0.00 | 0.00 | 87 | 1010.6 |
| 20260510023129 | 11 | 196 | 0.0 | 1.6 | 0.00 | 0.10 | 0.10 | 90 | 1009.7 |
| 20260510023053 | 11 | 196 | 0.0 | 1.6 | 0.03 | 0.10 | 0.10 | 90 | 1009.7 |
| 20260510022833 | 11 | 196 | 0.0 | 1.6 | 0.03 | 0.10 | 0.10 | 90 | 1009.7 |
| 20260510022752 | 11 | 67 | 0.0 | 1.6 | 0.03 | 0.10 | 0.10 | 90 | 1009.8 |
| 20260510022610 | 11 | 67 | 0.0 | 1.6 | 0.03 | 0.10 | 0.10 | 90 | 1009.8 |
| 20260510022510 | 11 | 51 | 1.6 | 1.6 | 0.03 | 0.10 | 0.10 | 90 | 1009.8 |
| 20260510022434 | 12 | 205 | 3.2 | 6.4 | 0.00 | 0.00 | 0.00 | 87 | 1010.7 |
| 20260510022407 | 11 | 51 | 0.0 | 1.6 | 0.03 | 0.10 | 0.10 | 90 | 1009.7 |
| 20260510022357 | 12 | 133 | 3.2 | 6.4 | 0.00 | 0.00 | 0.00 | 87 | 1010.6 |
| 20260510022306 | 11 | 61 | 0.0 | 1.6 | 0.03 | 0.10 | 0.10 | 90 | 1009.7 |
| 20260510022205 | 11 | 67 | 0.0 | 3.2 | 0.03 | 0.10 | 0.10 | 90 | 1009.7 |
| 20260510022152 | 12 | 105 | 3.2 | 8.0 | 0.00 | 0.00 | 0.00 | 86 | 1010.6 |
| 20260510022103 | 11 | 119 | 0.0 | 3.2 | 0.03 | 0.10 | 0.10 | 90 | 1009.7 |
| 20260510022003 | 11 | 247 | 0.0 | 3.2 | 0.03 | 0.10 | 0.10 | 90 | 1009.7 |
| 20260510021924 | 12 | 142 | 3.2 | 9.7 | 0.00 | 0.00 | 0.00 | 86 | 1010.7 |
| 20260510021902 | 11 | 247 | 0.0 | 3.2 | 0.03 | 0.10 | 0.10 | 90 | 1009.7 |
| 20260510021838 | 12 | 173 | 3.2 | 9.7 | 0.00 | 0.00 | 0.00 | 87 | 1010.7 |
| 20260510021756 | 11 | 221 | 0.0 | 3.2 | 0.03 | 0.10 | 0.10 | 90 | 1009.7 |
| 20260510021656 | 11 | 212 | 0.0 | 3.2 | 0.03 | 0.10 | 0.10 | 90 | 1009.7 |
| 20260510021611 | 11 | 221 | 0.0 | 3.2 | 0.03 | 0.10 | 0.10 | 90 | 1009.7 |
| 20260510021523 | 11 | 309 | 1.6 | 4.8 | 0.03 | 0.10 | 0.10 | 90 | 1009.7 |
| 20260510021244 | 11 | 291 | 1.6 | 4.8 | 0.03 | 0.10 | 0.10 | 90 | 1009.7 |
| 20260510021142 | 11 | 298 | 1.6 | 4.8 | 0.03 | 0.10 | 0.10 | 90 | 1009.7 |
| 20260510021048 | 11 | 279 | 1.6 | 4.8 | 0.03 | 0.10 | 0.10 | 90 | 1009.7 |
| 20260510020954 | 12 | 316 | 1.6 | 4.8 | 0.03 | 0.10 | 0.10 | 90 | 1009.7 |
| 20260510020912 | 12 | 341 | 3.2 | 4.8 | 0.03 | 0.10 | 0.10 | 90 | 1009.7 |
| 20260510020829 | 12 | 334 | 3.2 | 4.8 | 0.03 | 0.10 | 0.10 | 90 | 1009.7 |
| 20260510020605 | 12 | 329 | 3.2 | 3.2 | 0.03 | 0.10 | 0.10 | 90 | 1009.7 |
| 20260510020526 | 12 | 329 | 1.6 | 3.2 | 0.03 | 0.10 | 0.10 | 90 | 1009.8 |
| 20260510020444 | 12 | 309 | 0.0 | 3.2 | 0.03 | 0.10 | 0.10 | 91 | 1009.7 |
| 20260510020227 | 12 | 119 | 0.0 | 3.2 | 0.03 | 0.10 | 0.10 | 91 | 1009.7 |
| 20260510020151 | 12 | 119 | 0.0 | 3.2 | 0.03 | 0.10 | 0.10 | 91 | 1009.7 |
| 20260510020109 | 12 | 119 | 0.0 | 3.2 | 0.03 | 0.10 | 0.10 | 91 | 1009.7 |
| 20260510020020 | 12 | 119 | 0.0 | 3.2 | 0.03 | 0.10 | 0.10 | 91 | 1009.7 |
| 20260510015939 | 12 | 51 | 1.6 | 3.2 | 0.03 | 0.10 | 0.10 | 91 | 1009.7 |
| 20260510015857 | 12 | 34 | 1.6 | 3.2 | 0.03 | 0.10 | 0.10 | 91 | 1009.7 |
| 20260510015815 | 12 | 61 | 1.6 | 3.2 | 0.03 | 0.10 | 0.10 | 91 | 1009.7 |
| 20260510015740 | 12 | 51 | 1.6 | 3.2 | 0.03 | 0.10 | 0.10 | 91 | 1009.7 |
| 20260510015515 | 12 | 67 | 1.6 | 4.8 | 0.03 | 0.10 | 0.10 | 91 | 1009.7 |
| 20260510015113 | 12 | 22 | 1.6 | 4.8 | 0.03 | 0.10 | 0.10 | 91 | 1009.7 |
| 20260510014511 | 12 | 72 | 3.2 | 8.0 | 0.05 | 0.10 | 0.10 | 91 | 1009.7 |
| 20260510014434 | 13 | 119 | 3.2 | 8.0 | 0.00 | 0.00 | 0.00 | 86 | 1010.9 |
| 20260510014407 | 12 | 51 | 3.2 | 8.0 | 0.05 | 0.10 | 0.10 | 91 | 1009.7 |
| 20260510014308 | 12 | 63 | 3.2 | 8.0 | 0.05 | 0.10 | 0.10 | 91 | 1009.7 |
| 20260510014206 | 12 | 22 | 3.2 | 8.0 | 0.05 | 0.10 | 0.10 | 91 | 1009.7 |
| 20260510014104 | 12 | 54 | 3.2 | 8.0 | 0.08 | 0.10 | 0.10 | 91 | 1009.7 |
| 20260510014005 | 12 | 51 | 4.8 | 8.0 | 0.08 | 0.10 | 0.10 | 91 | 1009.7 |
| 20260510013927 | 12 | 74 | 6.4 | 8.0 | 0.08 | 0.10 | 0.10 | 91 | 1009.7 |
| 20260510013846 | 12 | 59 | 4.8 | 8.0 | 0.10 | 0.10 | 0.10 | 90 | 1009.7 |
| 20260510013803 | 12 | 65 | 3.2 | 8.0 | 0.10 | 0.10 | 0.10 | 90 | 1009.8 |
| 20260510013543 | 12 | 34 | 3.2 | 8.0 | 0.10 | 0.10 | 0.10 | 90 | 1009.8 |
| 20260510013319 | 12 | 19 | 3.2 | 8.0 | 0.10 | 0.10 | 0.10 | 90 | 1009.9 |
| 20260510013238 | 12 | 49 | 3.2 | 8.0 | 0.10 | 0.10 | 0.10 | 90 | 1009.9 |
| 20260510013046 | 12 | 59 | 3.2 | 8.0 | 0.10 | 0.10 | 0.10 | 90 | 1009.9 |
| 20260510013011 | 13 | 54 | 3.2 | 9.7 | 0.00 | 0.00 | 0.00 | 86 | 1010.9 |
| 20260510012945 | 12 | 19 | 3.2 | 8.0 | 0.08 | 0.08 | 0.08 | 90 | 1009.9 |
| 20260510012844 | 12 | 44 | 4.8 | 8.0 | 0.08 | 0.08 | 0.08 | 90 | 1009.8 |
| 20260510012744 | 12 | 36 | 4.8 | 8.0 | 0.08 | 0.08 | 0.08 | 90 | 1009.9 |
| 20260510012644 | 12 | 33 | 3.2 | 9.7 | 0.08 | 0.08 | 0.08 | 90 | 1009.9 |
| 20260510012623 | 13 | 106 | 3.2 | 9.7 | 0.00 | 0.00 | 0.00 | 86 | 1011.0 |
| 20260510012500 | 12 | 82 | 3.2 | 9.7 | 0.08 | 0.08 | 0.08 | 90 | 1009.9 |
| 20260510012420 | 12 | 115 | 1.6 | 9.7 | 0.08 | 0.08 | 0.08 | 90 | 1010.0 |
| 20260510012212 | 13 | 87 | 3.2 | 9.7 | 0.00 | 0.00 | 0.00 | 86 | 1011.0 |
| 20260510012148 | 13 | 111 | 3.2 | 9.7 | 0.00 | 0.00 | 0.00 | 86 | 1011.0 |
| 20260510012135 | 12 | 221 | 1.6 | 9.7 | 0.08 | 0.08 | 0.08 | 90 | 1009.9 |
| 20260510012034 | 12 | 149 | 1.6 | 9.7 | 0.08 | 0.08 | 0.08 | 90 | 1010.0 |
| 20260510011955 | 12 | 111 | 3.2 | 9.7 | 0.08 | 0.08 | 0.08 | 90 | 1010.0 |
| 20260510011913 | 12 | 78 | 3.2 | 9.7 | 0.08 | 0.08 | 0.08 | 90 | 1010.1 |
| 20260510011642 | 13 | 130 | 4.8 | 16.1 | 0.00 | 0.00 | 0.00 | 86 | 1011.0 |
| 20260510011629 | 12 | 119 | 1.6 | 6.4 | 0.08 | 0.08 | 0.08 | 90 | 1010.1 |
| 20260510011544 | 12 | 178 | 0.0 | 6.4 | 0.08 | 0.08 | 0.08 | 90 | 1010.1 |
| 20260510011508 | 12 | 178 | 0.0 | 6.4 | 0.08 | 0.08 | 0.08 | 90 | 1010.2 |
| 20260510011225 | 12 | 291 | 1.6 | 6.4 | 0.08 | 0.08 | 0.08 | 89 | 1010.2 |
| 20260510011146 | 13 | 109 | 4.8 | 16.1 | 0.00 | 0.00 | 0.00 | 86 | 1010.9 |
| 20260510011123 | 12 | 198 | 1.6 | 6.4 | 0.08 | 0.08 | 0.08 | 89 | 1010.3 |
| 20260510011024 | 12 | 178 | 1.6 | 6.4 | 0.08 | 0.08 | 0.08 | 89 | 1010.2 |
| 20260510010924 | 12 | 178 | 3.2 | 6.4 | 0.08 | 0.08 | 0.08 | 89 | 1010.2 |
| 20260510010837 | 12 | 146 | 3.2 | 6.4 | 0.08 | 0.08 | 0.08 | 89 | 1010.2 |
| 20260510010753 | 12 | 178 | 3.2 | 8.0 | 0.08 | 0.08 | 0.08 | 89 | 1010.2 |
| 20260510010713 | 12 | 171 | 3.2 | 8.0 | 0.08 | 0.08 | 0.08 | 89 | 1010.2 |
| 20260510010415 | 12 | 119 | 3.2 | 8.0 | 0.08 | 0.08 | 0.08 | 89 | 1010.3 |
| 20260510010316 | 12 | 153 | 3.2 | 8.0 | 0.08 | 0.08 | 0.08 | 89 | 1010.3 |
| 20260510010233 | 12 | 157 | 3.2 | 8.0 | 0.08 | 0.08 | 0.08 | 89 | 1010.3 |
| 20260510010153 | 12 | 137 | 3.2 | 8.0 | 0.08 | 0.08 | 0.08 | 89 | 1010.3 |
| 20260510005938 | 13 | 111 | 9.7 | 19.3 | 0.00 | 0.00 | 0.00 | 86 | 1011.0 |
| 20260510005912 | 12 | 113 | 3.2 | 8.0 | 0.08 | 0.08 | 0.08 | 89 | 1010.3 |
| 20260510005832 | 12 | 128 | 1.6 | 8.0 | 0.08 | 0.08 | 0.08 | 89 | 1010.3 |
| 20260510005747 | 12 | 137 | 1.6 | 3.2 | 0.08 | 0.08 | 0.08 | 89 | 1010.3 |
| 20260510005504 | 12 | 111 | 0.0 | 4.8 | 0.08 | 0.08 | 0.08 | 89 | 1010.4 |
| 20260510005402 | 12 | 221 | 0.0 | 4.8 | 0.08 | 0.08 | 0.08 | 89 | 1010.4 |
| 20260510005306 | 12 | 221 | 0.0 | 4.8 | 0.08 | 0.08 | 0.08 | 89 | 1010.5 |
| 20260510005252 | 13 | 134 | 8.0 | 17.7 | 0.00 | 0.00 | 0.00 | 87 | 1010.9 |
| 20260510005223 | 13 | 102 | 11.3 | 17.7 | 0.00 | 0.00 | 0.00 | 87 | 1010.9 |
| 20260510005200 | 12 | 126 | 0.0 | 4.8 | 0.08 | 0.08 | 0.08 | 89 | 1010.5 |
| 20260510005057 | 12 | 126 | 1.6 | 4.8 | 0.08 | 0.08 | 0.08 | 89 | 1010.5 |
| 20260510005018 | 13 | 65 | 4.8 | 12.9 | 0.00 | 0.00 | 0.00 | 87 | 1010.9 |
| 20260510004957 | 12 | 247 | 1.6 | 4.8 | 0.08 | 0.08 | 0.08 | 89 | 1010.6 |
| 20260510004913 | 12 | 221 | 1.6 | 4.8 | 0.08 | 0.08 | 0.08 | 88 | 1010.6 |
| 20260510004833 | 12 | 221 | 1.6 | 4.8 | 0.08 | 0.08 | 0.08 | 88 | 1010.6 |
| 20260510004751 | 12 | 178 | 1.6 | 4.8 | 0.05 | 0.05 | 0.08 | 88 | 1010.6 |
| 20260510004529 | 12 | 119 | 3.2 | 4.8 | 0.05 | 0.05 | 0.05 | 88 | 1010.6 |
| 20260510004340 | 12 | 102 | 3.2 | 4.8 | 0.05 | 0.05 | 0.05 | 88 | 1010.5 |
| 20260510004257 | 12 | 126 | 1.6 | 4.8 | 0.05 | 0.05 | 0.05 | 88 | 1010.6 |
| 20260510004215 | 12 | 128 | 1.6 | 4.8 | 0.05 | 0.05 | 0.05 | 88 | 1010.6 |
| 20260510003932 | 12 | 178 | 0.0 | 4.8 | 0.03 | 0.03 | 0.03 | 88 | 1010.7 |
| 20260510003831 | 12 | 93 | 1.6 | 4.8 | 0.00 | 0.00 | 0.03 | 88 | 1010.7 |
| 20260510003813 | 13 | 153 | 1.6 | 9.7 | 0.00 | 0.00 | 0.00 | 87 | 1010.8 |
| 20260510003731 | 12 | 129 | 1.6 | 4.8 | 0.00 | 0.00 | 0.00 | 88 | 1010.7 |
| 20260510003650 | 13 | 121 | 4.8 | 12.9 | 0.00 | 0.00 | 0.00 | 87 | 1010.8 |
| 20260510003623 | 12 | 80 | 3.2 | 4.8 | 0.00 | 0.00 | 0.00 | 88 | 1010.8 |
| 20260510003521 | 12 | 87 | 1.6 | 4.8 | 0.00 | 0.00 | 0.00 | 88 | 1010.7 |
| 20260510003421 | 12 | 93 | 1.6 | 3.2 | 0.00 | 0.00 | 0.00 | 88 | 1010.7 |
| 20260510003324 | 12 | 93 | 1.6 | 4.8 | 0.00 | 0.00 | 0.00 | 88 | 1010.8 |
| 20260510003245 | 12 | 93 | 0.0 | 4.8 | 0.00 | 0.00 | 0.00 | 88 | 1010.8 |
| 20260510003204 | 12 | 161 | 0.0 | 4.8 | 0.00 | 0.00 | 0.00 | 88 | 1010.8 |
| 20260510003013 | 12 | 137 | 0.0 | 4.8 | 0.00 | 0.00 | 0.00 | 88 | 1010.8 |
| 20260510002910 | 12 | 232 | 0.0 | 4.8 | 0.00 | 0.00 | 0.00 | 88 | 1010.8 |
| 20260510002809 | 12 | 232 | 1.6 | 4.8 | 0.00 | 0.00 | 0.00 | 88 | 1010.8 |
| 20260510002741 | 13 | 111 | 8.0 | 16.1 | 0.00 | 0.00 | 0.00 | 86 | 1010.8 |
| 20260510002708 | 12 | 221 | 1.6 | 4.8 | 0.00 | 0.00 | 0.00 | 88 | 1010.8 |
| 20260510002608 | 12 | 218 | 1.6 | 4.8 | 0.00 | 0.00 | 0.00 | 88 | 1010.8 |
| 20260510002522 | 12 | 221 | 1.6 | 4.8 | 0.00 | 0.00 | 0.00 | 88 | 1010.8 |
| 20260510002443 | 12 | 212 | 1.6 | 4.8 | 0.00 | 0.00 | 0.00 | 88 | 1010.8 |
| 20260510002155 | 12 | 265 | 1.6 | 6.4 | 0.00 | 0.00 | 0.00 | 88 | 1010.7 |
| 20260510002139 | 13 | 85 | 6.4 | 12.9 | 0.00 | 0.00 | 0.00 | 86 | 1010.8 |
| 20260510002054 | 12 | 243 | 1.6 | 6.4 | 0.00 | 0.00 | 0.00 | 88 | 1010.6 |
| 20260510002011 | 12 | 254 | 1.6 | 9.7 | 0.00 | 0.00 | 0.00 | 87 | 1010.7 |
| 20260510001931 | 12 | 238 | 0.0 | 9.7 | 0.00 | 0.00 | 0.00 | 87 | 1010.6 |
| 20260510001840 | 12 | 161 | 0.0 | 9.7 | 0.00 | 0.00 | 0.00 | 87 | 1010.7 |
| 20260510001621 | 12 | 137 | 3.2 | 9.7 | 0.00 | 0.00 | 0.00 | 87 | 1010.6 |
| 20260510001541 | 12 | 55 | 3.2 | 9.7 | 0.00 | 0.00 | 0.00 | 87 | 1010.6 |
| 20260510001317 | 12 | 71 | 4.8 | 9.7 | 0.00 | 0.00 | 0.00 | 87 | 1010.5 |
| 20260510001053 | 12 | 86 | 4.8 | 9.7 | 0.00 | 0.00 | 0.00 | 87 | 1010.5 |
| 20260510001014 | 12 | 76 | 3.2 | 4.8 | 0.00 | 0.00 | 0.00 | 87 | 1010.5 |
| 20260510000738 | 12 | 93 | 3.2 | 6.4 | 0.00 | 0.00 | 0.00 | 87 | 1010.6 |
| 20260510000655 | 12 | 119 | 3.2 | 6.4 | 0.00 | 0.00 | 0.00 | 87 | 1010.5 |
| 20260510000612 | 12 | 93 | 3.2 | 6.4 | 0.00 | 0.00 | 0.00 | 87 | 1010.7 |
| 20260510000532 | 12 | 165 | 3.2 | 6.4 | 0.00 | 0.00 | 0.00 | 87 | 1010.6 |
| 20260510000455 | 12 | 137 | 3.2 | 6.4 | 0.00 | 0.00 | 0.00 | 87 | 1010.6 |
| 20260510000218 | 12 | 143 | 1.6 | 6.4 | 0.00 | 0.00 | 0.00 | 87 | 1010.7 |
| 20260510000137 | 12 | 178 | 3.2 | 6.4 | 0.00 | 0.00 | 0.00 | 87 | 1010.7 |
| 20260509235907 | 12 | 146 | 3.2 | 6.4 | 0.00 | 0.00 | 0.00 | 87 | 1010.7 |
| 20260509235824 | 12 | 149 | 3.2 | 6.4 | 0.00 | 0.00 | 0.00 | 87 | 1010.6 |
| 20260509235742 | 12 | 140 | 1.6 | 6.4 | 0.00 | 0.00 | 0.00 | 87 | 1010.6 |
| 20260509235327 | 12 | 119 | 1.6 | 6.4 | 0.00 | 0.00 | 0.00 | 87 | 1010.7 |
| 20260509235243 | 12 | 111 | 1.6 | 6.4 | 0.00 | 0.00 | 0.00 | 87 | 1010.6 |
| 20260509235204 | 12 | 195 | 1.6 | 8.0 | 0.00 | 0.00 | 0.00 | 87 | 1010.6 |
| 20260509235123 | 12 | 131 | 3.2 | 8.0 | 0.00 | 0.00 | 0.00 | 86 | 1010.6 |
| 20260509234857 | 12 | 165 | 3.2 | 8.0 | 0.00 | 0.00 | 0.00 | 86 | 1010.6 |
| 20260509234708 | 12 | 93 | 3.2 | 8.0 | 0.00 | 0.00 | 0.00 | 86 | 1010.6 |
| 20260509234623 | 12 | 134 | 3.2 | 8.0 | 0.00 | 0.00 | 0.00 | 86 | 1010.6 |
| 20260509234544 | 12 | 105 | 3.2 | 8.0 | 0.00 | 0.00 | 0.00 | 86 | 1010.6 |
| 20260509234457 | 12 | 137 | 3.2 | 9.7 | 0.00 | 0.00 | 0.00 | 86 | 1010.7 |
| 20260509234236 | 12 | 188 | 3.2 | 9.7 | 0.00 | 0.00 | 0.00 | 86 | 1010.7 |
| 20260509233956 | 12 | 161 | 3.2 | 9.7 | 0.00 | 0.00 | 0.00 | 87 | 1010.7 |
| 20260509233919 | 14 | 130 | 6.4 | 20.9 | 0.00 | 0.00 | 0.00 | 85 | 1010.3 |
| 20260509233854 | 12 | 161 | 3.2 | 9.7 | 0.00 | 0.00 | 0.00 | 86 | 1010.7 |
| 20260509233834 | 14 | 123 | 6.4 | 20.9 | 0.00 | 0.00 | 0.00 | 85 | 1010.3 |
| 20260509233757 | 13 | 124 | 3.2 | 9.7 | 0.00 | 0.00 | 0.00 | 86 | 1010.7 |
| 20260509233714 | 13 | 123 | 4.8 | 9.7 | 0.00 | 0.00 | 0.00 | 86 | 1010.7 |
| 20260509233631 | 13 | 101 | 4.8 | 9.7 | 0.00 | 0.00 | 0.00 | 86 | 1010.6 |
| 20260509233541 | 13 | 101 | 3.2 | 6.4 | 0.00 | 0.00 | 0.00 | 86 | 1010.6 |
| 20260509233343 | 13 | 165 | 3.2 | 6.4 | 0.00 | 0.00 | 0.00 | 86 | 1010.7 |
| 20260509233301 | 14 | 70 | 11.3 | 20.9 | 0.00 | 0.00 | 0.00 | 85 | 1010.2 |
| 20260509233240 | 13 | 137 | 3.2 | 4.8 | 0.00 | 0.00 | 0.00 | 86 | 1010.7 |
| 20260509233144 | 13 | 82 | 3.2 | 4.8 | 0.00 | 0.00 | 0.00 | 86 | 1010.7 |
| 20260509233053 | 14 | 48 | 3.2 | 19.3 | 0.00 | 0.00 | 0.00 | 85 | 1010.2 |
| 20260509233040 | 13 | 93 | 3.2 | 9.7 | 0.00 | 0.00 | 0.00 | 86 | 1010.7 |
| 20260509232940 | 13 | 105 | 3.2 | 9.7 | 0.00 | 0.00 | 0.00 | 86 | 1010.7 |
| 20260509232838 | 13 | 111 | 3.2 | 9.7 | 0.00 | 0.00 | 0.00 | 86 | 1010.8 |
| 20260509232736 | 13 | 85 | 3.2 | 9.7 | 0.00 | 0.00 | 0.00 | 86 | 1010.8 |
| 20260509232719 | 14 | 100 | 8.0 | 24.1 | 0.00 | 0.00 | 0.00 | 84 | 1010.1 |
| 20260509232637 | 13 | 132 | 3.2 | 9.7 | 0.00 | 0.00 | 0.00 | 86 | 1010.8 |
| 20260509232536 | 13 | 128 | 1.6 | 9.7 | 0.00 | 0.00 | 0.00 | 86 | 1010.8 |
| 20260509232435 | 13 | 178 | 1.6 | 9.7 | 0.00 | 0.00 | 0.00 | 86 | 1010.9 |
| 20260509232352 | 13 | 144 | 3.2 | 9.7 | 0.00 | 0.00 | 0.00 | 86 | 1010.8 |
| 20260509232310 | 13 | 131 | 3.2 | 9.7 | 0.00 | 0.00 | 0.00 | 86 | 1010.8 |
| 20260509232228 | 13 | 121 | 3.2 | 6.4 | 0.00 | 0.00 | 0.00 | 86 | 1010.8 |
| 20260509232149 | 13 | 102 | 3.2 | 6.4 | 0.00 | 0.00 | 0.00 | 86 | 1010.8 |
| 20260509231920 | 13 | 61 | 3.2 | 8.0 | 0.00 | 0.00 | 0.00 | 86 | 1010.8 |
| 20260509231724 | 13 | 93 | 3.2 | 8.0 | 0.00 | 0.00 | 0.00 | 86 | 1010.8 |
| 20260509231623 | 13 | 93 | 3.2 | 8.0 | 0.00 | 0.00 | 0.00 | 86 | 1010.8 |
| 20260509231533 | 13 | 93 | 3.2 | 8.0 | 0.00 | 0.00 | 0.00 | 86 | 1010.8 |
| 20260509231419 | 13 | 98 | 3.2 | 8.0 | 0.00 | 0.00 | 0.00 | 86 | 1010.9 |
| 20260509231335 | 15 | 86 | 16.1 | 27.4 | 0.00 | 0.00 | 0.00 | 82 | 1009.9 |
| 20260509231317 | 13 | 76 | 3.2 | 8.0 | 0.00 | 0.00 | 0.00 | 86 | 1010.8 |
| 20260509231226 | 13 | 111 | 3.2 | 8.0 | 0.00 | 0.00 | 0.00 | 86 | 1010.9 |
| 20260509231144 | 13 | 105 | 3.2 | 8.0 | 0.00 | 0.00 | 0.00 | 86 | 1010.9 |
| 20260509231104 | 13 | 76 | 3.2 | 8.0 | 0.00 | 0.00 | 0.00 | 86 | 1010.9 |
| 20260509231016 | 13 | 132 | 3.2 | 8.0 | 0.00 | 0.00 | 0.00 | 86 | 1010.9 |
| 20260509230751 | 13 | 71 | 3.2 | 8.0 | 0.00 | 0.00 | 0.00 | 86 | 1010.9 |
| 20260509230507 | 13 | 63 | 4.8 | 9.7 | 0.00 | 0.00 | 0.00 | 86 | 1010.9 |
| 20260509230408 | 13 | 100 | 4.8 | 9.7 | 0.00 | 0.00 | 0.00 | 86 | 1010.9 |
| 20260509230319 | 13 | 77 | 3.2 | 9.7 | 0.00 | 0.00 | 0.00 | 86 | 1010.9 |
| 20260509230237 | 13 | 103 | 3.2 | 9.7 | 0.00 | 0.00 | 0.00 | 86 | 1010.9 |
| 20260509230142 | 13 | 72 | 3.2 | 9.7 | 0.00 | 0.00 | 0.00 | 86 | 1010.9 |
| 20260509230004 | 13 | 124 | 3.2 | 9.7 | 0.00 | 0.00 | 0.00 | 86 | 1011.0 |
| 20260509225923 | 13 | 126 | 4.8 | 9.7 | 0.00 | 0.00 | 0.00 | 86 | 1010.9 |
| 20260509225658 | 13 | 79 | 3.2 | 9.7 | 0.00 | 0.00 | 0.00 | 86 | 1011.0 |
| 20260509225616 | 13 | 93 | 4.8 | 9.7 | 0.00 | 0.00 | 0.00 | 86 | 1011.0 |
| 20260509225208 | 15 | 72 | 9.7 | 25.7 | 0.00 | 0.00 | 0.00 | 82 | 1009.9 |
| 20260509225151 | 13 | 80 | 3.2 | 9.7 | 0.00 | 0.00 | 0.00 | 86 | 1011.0 |
| 20260509225101 | 15 | 121 | 14.5 | 25.7 | 0.00 | 0.00 | 0.00 | 81 | 1009.9 |
| 20260509225049 | 13 | 134 | 3.2 | 9.7 | 0.00 | 0.00 | 0.00 | 86 | 1011.1 |
| 20260509225008 | 13 | 137 | 3.2 | 16.1 | 0.00 | 0.00 | 0.00 | 86 | 1011.0 |
| 20260509224928 | 13 | 93 | 3.2 | 16.1 | 0.00 | 0.00 | 0.00 | 86 | 1011.0 |
| 20260509224703 | 13 | 141 | 6.4 | 16.1 | 0.00 | 0.00 | 0.00 | 86 | 1011.0 |
| 20260509224621 | 13 | 119 | 6.4 | 16.1 | 0.00 | 0.00 | 0.00 | 86 | 1010.9 |
| 20260509224340 | 13 | 78 | 4.8 | 16.1 | 0.00 | 0.00 | 0.00 | 86 | 1010.9 |
| 20260509224239 | 13 | 74 | 6.4 | 16.1 | 0.00 | 0.00 | 0.00 | 86 | 1010.9 |
| 20260509224137 | 13 | 88 | 9.7 | 20.9 | 0.00 | 0.00 | 0.00 | 86 | 1010.9 |
| 20260509224114 | 15 | 109 | 9.7 | 25.7 | 0.00 | 0.00 | 0.00 | 81 | 1009.8 |
| 20260509224037 | 13 | 101 | 9.7 | 20.9 | 0.00 | 0.00 | 0.00 | 86 | 1010.9 |
| 20260509223937 | 13 | 93 | 8.0 | 20.9 | 0.00 | 0.00 | 0.00 | 86 | 1010.9 |
| 20260509223921 | 15 | 109 | 11.3 | 25.7 | 0.00 | 0.00 | 0.00 | 80 | 1009.9 |
| 20260509223835 | 13 | 63 | 6.4 | 20.9 | 0.00 | 0.00 | 0.00 | 86 | 1010.9 |
| 20260509223734 | 13 | 114 | 6.4 | 20.9 | 0.00 | 0.00 | 0.00 | 86 | 1011.0 |
| 20260509223633 | 13 | 107 | 6.4 | 20.9 | 0.00 | 0.00 | 0.00 | 86 | 1011.0 |
| 20260509223531 | 13 | 93 | 8.0 | 20.9 | 0.00 | 0.00 | 0.00 | 86 | 1011.0 |
| 20260509223511 | 15 | 86 | 8.0 | 17.7 | 0.00 | 0.00 | 0.00 | 79 | 1009.7 |
| 20260509223433 | 13 | 100 | 9.7 | 20.9 | 0.00 | 0.00 | 0.00 | 86 | 1011.0 |
| 20260509223349 | 13 | 88 | 11.3 | 20.9 | 0.00 | 0.00 | 0.00 | 86 | 1011.0 |
| 20260509223309 | 13 | 100 | 11.3 | 20.9 | 0.00 | 0.00 | 0.00 | 86 | 1011.0 |
| 20260509223026 | 13 | 79 | 11.3 | 19.3 | 0.00 | 0.00 | 0.00 | 86 | 1011.1 |
| 20260509222925 | 13 | 100 | 12.9 | 19.3 | 0.00 | 0.00 | 0.00 | 86 | 1011.0 |
| 20260509222855 | 15 | 113 | 11.3 | 19.3 | 0.00 | 0.00 | 0.00 | 78 | 1009.6 |
| 20260509222823 | 13 | 76 | 9.7 | 17.7 | 0.00 | 0.00 | 0.00 | 87 | 1011.0 |
| 20260509222723 | 13 | 93 | 6.4 | 17.7 | 0.00 | 0.00 | 0.00 | 87 | 1011.1 |
| 20260509222652 | 15 | 67 | 8.0 | 20.9 | 0.00 | 0.00 | 0.00 | 77 | 1009.5 |
| 20260509222620 | 13 | 133 | 6.4 | 17.7 | 0.00 | 0.00 | 0.00 | 87 | 1011.0 |
| 20260509222538 | 13 | 131 | 8.0 | 17.7 | 0.00 | 0.00 | 0.00 | 87 | 1011.1 |
| 20260509222458 | 13 | 109 | 8.0 | 17.7 | 0.00 | 0.00 | 0.00 | 87 | 1011.0 |
| 20260509222415 | 13 | 144 | 6.4 | 17.7 | 0.00 | 0.00 | 0.00 | 87 | 1010.9 |
| 20260509222336 | 13 | 79 | 6.4 | 17.7 | 0.00 | 0.00 | 0.00 | 87 | 1011.0 |
| 20260509221922 | 13 | 99 | 9.7 | 17.7 | 0.00 | 0.00 | 0.00 | 87 | 1010.9 |
| 20260509221840 | 13 | 79 | 6.4 | 17.7 | 0.00 | 0.00 | 0.00 | 87 | 1010.9 |
| 20260509221758 | 13 | 67 | 6.4 | 12.9 | 0.00 | 0.00 | 0.00 | 87 | 1010.9 |
| 20260509221718 | 13 | 109 | 6.4 | 12.9 | 0.00 | 0.00 | 0.00 | 87 | 1010.9 |
| 20260509221636 | 13 | 83 | 6.4 | 12.9 | 0.00 | 0.00 | 0.00 | 87 | 1010.9 |
| 20260509221231 | 13 | 65 | 3.2 | 6.4 | 0.00 | 0.00 | 0.00 | 87 | 1010.9 |
| 20260509221150 | 13 | 85 | 3.2 | 9.7 | 0.00 | 0.00 | 0.00 | 87 | 1010.9 |
| 20260509220959 | 13 | 57 | 3.2 | 9.7 | 0.00 | 0.00 | 0.00 | 87 | 1010.9 |
| 20260509220903 | 13 | 168 | 3.2 | 9.7 | 0.00 | 0.00 | 0.00 | 87 | 1010.8 |
| 20260509220821 | 13 | 188 | 3.2 | 9.7 | 0.00 | 0.00 | 0.00 | 87 | 1010.8 |
| 20260509220740 | 13 | 171 | 1.6 | 9.7 | 0.00 | 0.00 | 0.00 | 87 | 1010.9 |
| 20260509220508 | 13 | 137 | 3.2 | 9.7 | 0.00 | 0.00 | 0.00 | 87 | 1010.9 |
| 20260509220418 | 13 | 59 | 4.8 | 9.7 | 0.00 | 0.00 | 0.00 | 87 | 1010.9 |
| 20260509220338 | 13 | 61 | 4.8 | 12.9 | 0.00 | 0.00 | 0.00 | 87 | 1010.9 |
| 20260509220053 | 13 | 114 | 4.8 | 12.9 | 0.00 | 0.00 | 0.00 | 86 | 1010.9 |
| 20260509215951 | 13 | 99 | 4.8 | 12.9 | 0.00 | 0.00 | 0.00 | 86 | 1010.8 |
| 20260509215849 | 13 | 106 | 3.2 | 12.9 | 0.00 | 0.00 | 0.00 | 86 | 1010.8 |
| 20260509215829 | 15 | 67 | 4.8 | 12.9 | 0.00 | 0.00 | 0.00 | 77 | 1009.1 |
| 20260509215748 | 13 | 146 | 4.8 | 12.9 | 0.00 | 0.00 | 0.00 | 86 | 1010.8 |
| 20260509215650 | 13 | 105 | 3.2 | 12.9 | 0.00 | 0.00 | 0.00 | 86 | 1010.8 |
| 20260509215609 | 13 | 82 | 4.8 | 12.9 | 0.00 | 0.00 | 0.00 | 86 | 1010.8 |
| 20260509215527 | 13 | 105 | 6.4 | 12.9 | 0.00 | 0.00 | 0.00 | 86 | 1010.8 |
| 20260509215258 | 13 | 121 | 4.8 | 12.9 | 0.00 | 0.00 | 0.00 | 86 | 1010.7 |
| 20260509215216 | 13 | 130 | 4.8 | 12.9 | 0.00 | 0.00 | 0.00 | 86 | 1010.8 |
| 20260509215134 | 13 | 101 | 4.8 | 12.9 | 0.00 | 0.00 | 0.00 | 86 | 1010.8 |
| 20260509214947 | 13 | 34 | 4.8 | 14.5 | 0.00 | 0.00 | 0.00 | 86 | 1010.8 |
| 20260509214901 | 13 | 85 | 4.8 | 16.1 | 0.00 | 0.00 | 0.00 | 86 | 1010.8 |
| 20260509214819 | 13 | 67 | 6.4 | 16.1 | 0.00 | 0.00 | 0.00 | 86 | 1010.8 |
| 20260509214534 | 13 | 102 | 6.4 | 16.1 | 0.00 | 0.00 | 0.00 | 86 | 1010.9 |
| 20260509214520 | 15 | 128 | 8.0 | 20.9 | 0.00 | 0.00 | 0.00 | 76 | 1008.9 |
| 20260509214444 | 13 | 113 | 4.8 | 16.1 | 0.00 | 0.00 | 0.00 | 86 | 1010.8 |
| 20260509214359 | 13 | 34 | 6.4 | 16.1 | 0.00 | 0.00 | 0.00 | 86 | 1010.8 |
| 20260509214317 | 13 | 158 | 8.0 | 16.1 | 0.00 | 0.00 | 0.00 | 86 | 1010.7 |
| 20260509214235 | 13 | 164 | 6.4 | 16.1 | 0.00 | 0.00 | 0.00 | 86 | 1010.8 |
| 20260509214154 | 13 | 111 | 8.0 | 16.1 | 0.00 | 0.00 | 0.00 | 86 | 1010.8 |
| 20260509214112 | 13 | 117 | 9.7 | 16.1 | 0.00 | 0.00 | 0.00 | 86 | 1010.8 |
| 20260509213843 | 14 | 106 | 4.8 | 12.9 | 0.00 | 0.00 | 0.00 | 86 | 1010.8 |
| 20260509213758 | 14 | 113 | 3.2 | 9.7 | 0.00 | 0.00 | 0.00 | 86 | 1010.7 |
| 20260509213526 | 14 | 67 | 4.8 | 9.7 | 0.00 | 0.00 | 0.00 | 86 | 1010.8 |
| 20260509213440 | 14 | 93 | 4.8 | 9.7 | 0.00 | 0.00 | 0.00 | 86 | 1010.8 |
| 20260509213358 | 14 | 128 | 4.8 | 9.7 | 0.00 | 0.00 | 0.00 | 86 | 1010.8 |
| 20260509213317 | 14 | 124 | 4.8 | 9.7 | 0.00 | 0.00 | 0.00 | 86 | 1010.8 |
| 20260509212711 | 14 | 129 | 3.2 | 9.7 | 0.00 | 0.00 | 0.00 | 86 | 1010.7 |
| 20260509212611 | 14 | 137 | 3.2 | 9.7 | 0.00 | 0.00 | 0.00 | 86 | 1010.7 |
| 20260509212513 | 14 | 130 | 4.8 | 9.7 | 0.00 | 0.00 | 0.00 | 86 | 1010.6 |
| 20260509212429 | 14 | 133 | 3.2 | 9.7 | 0.00 | 0.00 | 0.00 | 85 | 1010.6 |
| 20260509212340 | 14 | 184 | 3.2 | 9.7 | 0.00 | 0.00 | 0.00 | 85 | 1010.6 |
| 20260509212259 | 14 | 134 | 3.2 | 9.7 | 0.00 | 0.00 | 0.00 | 85 | 1010.7 |
| 20260509212219 | 14 | 202 | 3.2 | 12.9 | 0.00 | 0.00 | 0.00 | 85 | 1010.6 |
| 20260509212141 | 14 | 178 | 3.2 | 12.9 | 0.00 | 0.00 | 0.00 | 85 | 1010.6 |
| 20260509212054 | 14 | 51 | 3.2 | 12.9 | 0.00 | 0.00 | 0.00 | 85 | 1010.6 |
| 20260509212015 | 14 | 123 | 1.6 | 12.9 | 0.00 | 0.00 | 0.00 | 85 | 1010.6 |
| 20260509211750 | 14 | 178 | 4.8 | 14.5 | 0.00 | 0.00 | 0.00 | 85 | 1010.5 |
| 20260509211710 | 14 | 105 | 3.2 | 14.5 | 0.00 | 0.00 | 0.00 | 85 | 1010.5 |
| 20260509211625 | 14 | 162 | 4.8 | 14.5 | 0.00 | 0.00 | 0.00 | 85 | 1010.4 |
| 20260509211543 | 14 | 71 | 3.2 | 14.5 | 0.00 | 0.00 | 0.00 | 85 | 1010.4 |
| 20260509211504 | 14 | 113 | 1.6 | 14.5 | 0.00 | 0.00 | 0.00 | 85 | 1010.4 |
| 20260509211244 | 14 | 217 | 3.2 | 20.9 | 0.00 | 0.00 | 0.00 | 85 | 1010.3 |
| 20260509211158 | 14 | 85 | 6.4 | 20.9 | 0.00 | 0.00 | 0.00 | 85 | 1010.3 |
| 20260509211116 | 14 | 137 | 8.0 | 20.9 | 0.00 | 0.00 | 0.00 | 85 | 1010.3 |
| 20260509210506 | 14 | 116 | 9.7 | 20.9 | 0.00 | 0.00 | 0.00 | 85 | 1010.3 |
| 20260509210424 | 14 | 86 | 11.3 | 20.9 | 0.00 | 0.00 | 0.00 | 85 | 1010.3 |
| 20260509210039 | 14 | 124 | 6.4 | 20.9 | 0.00 | 0.00 | 0.00 | 85 | 1010.2 |
| 20260509205948 | 14 | 107 | 3.2 | 19.3 | 0.00 | 0.00 | 0.00 | 85 | 1010.3 |
| 20260509205903 | 14 | 108 | 3.2 | 19.3 | 0.00 | 0.00 | 0.00 | 85 | 1010.2 |
| 20260509205820 | 14 | 55 | 3.2 | 19.3 | 0.00 | 0.00 | 0.00 | 85 | 1010.2 |
| 20260509205532 | 14 | 101 | 3.2 | 19.3 | 0.00 | 0.00 | 0.00 | 85 | 1010.2 |
| 20260509205432 | 14 | 111 | 4.8 | 19.3 | 0.00 | 0.00 | 0.00 | 85 | 1010.2 |
| 20260509205414 | 15 | 93 | 8.0 | 25.7 | 0.00 | 0.00 | 0.00 | 78 | 1008.6 |
| 20260509205326 | 14 | 93 | 6.4 | 19.3 | 0.00 | 0.00 | 0.00 | 85 | 1010.1 |
| 20260509205227 | 14 | 148 | 9.7 | 22.5 | 0.00 | 0.00 | 0.00 | 85 | 1010.2 |
| 20260509205146 | 14 | 123 | 14.5 | 24.1 | 0.00 | 0.00 | 0.00 | 85 | 1010.1 |
| 20260509205103 | 14 | 117 | 11.3 | 24.1 | 0.00 | 0.00 | 0.00 | 84 | 1010.1 |
| 20260509205009 | 14 | 104 | 9.7 | 24.1 | 0.00 | 0.00 | 0.00 | 84 | 1010.1 |
| 20260509204722 | 14 | 121 | 9.7 | 24.1 | 0.00 | 0.00 | 0.00 | 84 | 1010.1 |
| 20260509204706 | 15 | 92 | 6.4 | 20.9 | 0.00 | 0.00 | 0.00 | 78 | 1008.6 |
| 20260509204622 | 14 | 134 | 8.0 | 24.1 | 0.00 | 0.00 | 0.00 | 84 | 1010.1 |
| 20260509204559 | 15 | 83 | 11.3 | 20.9 | 0.00 | 0.00 | 0.00 | 78 | 1008.9 |
| 20260509204521 | 15 | 90 | 9.7 | 27.4 | 0.00 | 0.00 | 0.00 | 84 | 1010.1 |
| 20260509204459 | 15 | 88 | 11.3 | 20.9 | 0.00 | 0.00 | 0.00 | 78 | 1008.8 |
| 20260509204428 | 15 | 90 | 12.9 | 27.4 | 0.00 | 0.00 | 0.00 | 84 | 1010.0 |
| 20260509204341 | 14 | 102 | 16.1 | 27.4 | 0.00 | 0.00 | 0.00 | 84 | 1010.1 |
| 20260509204302 | 15 | 92 | 16.1 | 27.4 | 0.00 | 0.00 | 0.00 | 83 | 1010.0 |
| 20260509204047 | 15 | 97 | 8.0 | 17.7 | 0.00 | 0.00 | 0.00 | 78 | 1008.8 |
| 20260509204012 | 15 | 90 | 11.3 | 27.4 | 0.00 | 0.00 | 0.00 | 83 | 1010.1 |
| 20260509203910 | 15 | 126 | 14.5 | 27.4 | 0.00 | 0.00 | 0.00 | 83 | 1010.1 |
| 20260509203856 | 15 | 71 | 8.0 | 20.9 | 0.00 | 0.00 | 0.00 | 78 | 1008.8 |
| 20260509203809 | 15 | 96 | 14.5 | 27.4 | 0.00 | 0.00 | 0.00 | 83 | 1010.1 |
| 20260509203708 | 15 | 112 | 12.9 | 27.4 | 0.00 | 0.00 | 0.00 | 82 | 1010.1 |
| 20260509203611 | 15 | 117 | 14.5 | 27.4 | 0.00 | 0.00 | 0.00 | 82 | 1010.1 |
| 20260509203531 | 15 | 126 | 14.5 | 27.4 | 0.00 | 0.00 | 0.00 | 82 | 1010.0 |
| 20260509203446 | 15 | 109 | 14.5 | 27.4 | 0.00 | 0.00 | 0.00 | 82 | 1010.0 |
| 20260509203201 | 15 | 114 | 14.5 | 27.4 | 0.00 | 0.00 | 0.00 | 82 | 1009.9 |
| 20260509203100 | 15 | 112 | 11.3 | 24.1 | 0.00 | 0.00 | 0.00 | 82 | 1009.9 |
| 20260509202959 | 15 | 81 | 14.5 | 24.1 | 0.00 | 0.00 | 0.00 | 82 | 1009.9 |
| 20260509202859 | 15 | 128 | 12.9 | 22.5 | 0.00 | 0.00 | 0.00 | 82 | 1009.9 |
| 20260509202755 | 15 | 117 | 11.3 | 22.5 | 0.00 | 0.00 | 0.00 | 82 | 1010.0 |
| 20260509202703 | 15 | 90 | 9.7 | 22.5 | 0.00 | 0.00 | 0.00 | 82 | 1009.9 |
| 20260509202618 | 15 | 135 | 6.4 | 22.5 | 0.00 | 0.00 | 0.00 | 82 | 1009.9 |
| 20260509202536 | 15 | 144 | 8.0 | 25.7 | 0.00 | 0.00 | 0.00 | 82 | 1010.0 |
| 20260509202454 | 15 | 116 | 9.7 | 25.7 | 0.00 | 0.00 | 0.00 | 82 | 1009.9 |
| 20260509202230 | 15 | 104 | 11.3 | 25.7 | 0.00 | 0.00 | 0.00 | 81 | 1009.9 |
| 20260509201946 | 15 | 92 | 12.9 | 25.7 | 0.00 | 0.00 | 0.00 | 81 | 1009.9 |
| 20260509201933 | 16 | 72 | 9.7 | 20.9 | 0.00 | 0.00 | 0.00 | 77 | 1008.9 |
| 20260509201847 | 15 | 105 | 12.9 | 25.7 | 0.00 | 0.00 | 0.00 | 81 | 1009.8 |
| 20260509201745 | 15 | 114 | 14.5 | 25.7 | 0.00 | 0.00 | 0.00 | 81 | 1009.8 |
| 20260509201720 | 16 | 121 | 8.0 | 20.9 | 0.00 | 0.00 | 0.00 | 77 | 1008.9 |
| 20260509201645 | 15 | 102 | 12.9 | 25.7 | 0.00 | 0.00 | 0.00 | 81 | 1009.8 |
| 20260509201634 | 16 | 61 | 8.0 | 20.9 | 0.00 | 0.00 | 0.00 | 77 | 1008.9 |
| 20260509201547 | 15 | 121 | 9.7 | 20.9 | 0.00 | 0.00 | 0.00 | 81 | 1009.8 |
| 20260509201504 | 15 | 110 | 11.3 | 20.9 | 0.00 | 0.00 | 0.00 | 81 | 1009.8 |
| 20260509201418 | 15 | 134 | 9.7 | 25.7 | 0.00 | 0.00 | 0.00 | 81 | 1009.8 |
| 20260509201154 | 15 | 83 | 9.7 | 25.7 | 0.00 | 0.00 | 0.00 | 80 | 1009.8 |
| 20260509201113 | 15 | 160 | 8.0 | 25.7 | 0.00 | 0.00 | 0.00 | 80 | 1009.7 |
| 20260509201030 | 15 | 111 | 9.7 | 25.7 | 0.00 | 0.00 | 0.00 | 80 | 1009.8 |
| 20260509200759 | 16 | 105 | 12.9 | 20.9 | 0.00 | 0.00 | 0.00 | 77 | 1009.0 |
| 20260509200733 | 15 | 93 | 12.9 | 25.7 | 0.00 | 0.00 | 0.00 | 80 | 1009.7 |
| 20260509200626 | 15 | 99 | 16.1 | 25.7 | 0.00 | 0.00 | 0.00 | 80 | 1009.8 |
| 20260509200526 | 15 | 93 | 12.9 | 25.7 | 0.00 | 0.00 | 0.00 | 80 | 1009.7 |
| 20260509200424 | 15 | 126 | 9.7 | 19.3 | 0.00 | 0.00 | 0.00 | 79 | 1009.7 |
| 20260509200324 | 15 | 93 | 11.3 | 19.3 | 0.00 | 0.00 | 0.00 | 79 | 1009.8 |
| 20260509200253 | 16 | 104 | 12.9 | 20.9 | 0.00 | 0.00 | 0.00 | 76 | 1008.8 |
| 20260509200226 | 15 | 101 | 12.9 | 19.3 | 0.00 | 0.00 | 0.00 | 79 | 1009.7 |
| 20260509200140 | 15 | 117 | 11.3 | 17.7 | 0.00 | 0.00 | 0.00 | 79 | 1009.7 |
| 20260509200053 | 15 | 86 | 9.7 | 17.7 | 0.00 | 0.00 | 0.00 | 79 | 1009.6 |
| 20260509200011 | 15 | 74 | 9.7 | 17.7 | 0.00 | 0.00 | 0.00 | 79 | 1009.8 |
| 20260509195745 | 15 | 90 | 6.4 | 19.3 | 0.00 | 0.00 | 0.00 | 79 | 1009.6 |
| 20260509195702 | 15 | 245 | 6.4 | 19.3 | 0.00 | 0.00 | 0.00 | 79 | 1009.7 |
| 20260509195620 | 15 | 67 | 6.4 | 19.3 | 0.00 | 0.00 | 0.00 | 78 | 1009.7 |
| 20260509195416 | 15 | 84 | 6.4 | 19.3 | 0.00 | 0.00 | 0.00 | 78 | 1009.7 |
| 20260509195329 | 15 | 71 | 8.0 | 19.3 | 0.00 | 0.00 | 0.00 | 78 | 1009.7 |
| 20260509195235 | 15 | 86 | 9.7 | 19.3 | 0.00 | 0.00 | 0.00 | 78 | 1009.6 |
| 20260509195151 | 15 | 113 | 11.3 | 19.3 | 0.00 | 0.00 | 0.00 | 78 | 1009.6 |
| 20260509194907 | 15 | 137 | 11.3 | 20.9 | 0.00 | 0.00 | 0.00 | 78 | 1009.6 |
| 20260509194819 | 15 | 108 | 8.0 | 20.9 | 0.00 | 0.00 | 0.00 | 78 | 1009.6 |
| 20260509194737 | 15 | 123 | 8.0 | 20.9 | 0.00 | 0.00 | 0.00 | 78 | 1009.5 |
| 20260509194656 | 15 | 117 | 8.0 | 20.9 | 0.00 | 0.00 | 0.00 | 77 | 1009.5 |
| 20260509194405 | 15 | 69 | 8.0 | 20.9 | 0.00 | 0.00 | 0.00 | 77 | 1009.5 |
| 20260509194306 | 15 | 63 | 11.3 | 20.9 | 0.00 | 0.00 | 0.00 | 77 | 1009.5 |
| 20260509194226 | 15 | 105 | 12.9 | 20.9 | 0.00 | 0.00 | 0.00 | 77 | 1009.5 |
| 20260509194143 | 15 | 121 | 14.5 | 20.9 | 0.00 | 0.00 | 0.00 | 77 | 1009.5 |
| 20260509193909 | 15 | 65 | 14.5 | 19.3 | 0.00 | 0.00 | 0.00 | 77 | 1009.4 |
| 20260509193825 | 15 | 117 | 12.9 | 17.7 | 0.00 | 0.00 | 0.00 | 77 | 1009.4 |
| 20260509193742 | 15 | 83 | 11.3 | 17.7 | 0.00 | 0.00 | 0.00 | 77 | 1009.3 |
| 20260509193659 | 15 | 67 | 9.7 | 14.5 | 0.00 | 0.00 | 0.00 | 77 | 1009.4 |
| 20260509193436 | 15 | 90 | 8.0 | 12.9 | 0.00 | 0.00 | 0.00 | 77 | 1009.3 |
| 20260509193155 | 15 | 108 | 6.4 | 12.9 | 0.00 | 0.00 | 0.00 | 77 | 1009.3 |
| 20260509193111 | 15 | 93 | 6.4 | 12.9 | 0.00 | 0.00 | 0.00 | 77 | 1009.4 |
| 20260509193032 | 15 | 88 | 6.4 | 14.5 | 0.00 | 0.00 | 0.00 | 77 | 1009.4 |
| 20260509192752 | 15 | 93 | 8.0 | 14.5 | 0.00 | 0.00 | 0.00 | 77 | 1009.3 |
| 20260509192714 | 15 | 113 | 6.4 | 14.5 | 0.00 | 0.00 | 0.00 | 77 | 1009.2 |
| 20260509192624 | 15 | 78 | 8.0 | 14.5 | 0.00 | 0.00 | 0.00 | 77 | 1009.2 |
| 20260509192543 | 15 | 61 | 8.0 | 14.5 | 0.00 | 0.00 | 0.00 | 77 | 1009.2 |
| 20260509192341 | 15 | 99 | 4.8 | 14.5 | 0.00 | 0.00 | 0.00 | 77 | 1009.2 |
| 20260509192255 | 16 | 129 | 11.3 | 25.7 | 0.00 | 0.00 | 0.00 | 76 | 1008.9 |
| 20260509192240 | 15 | 61 | 4.8 | 14.5 | 0.00 | 0.00 | 0.00 | 77 | 1009.2 |
| 20260509192141 | 15 | 88 | 6.4 | 14.5 | 0.00 | 0.00 | 0.00 | 77 | 1009.2 |
| 20260509192045 | 15 | 83 | 6.4 | 14.5 | 0.00 | 0.00 | 0.00 | 77 | 1009.1 |
| 20260509191958 | 15 | 69 | 6.4 | 12.9 | 0.00 | 0.00 | 0.00 | 77 | 1009.0 |
| 20260509191920 | 15 | 70 | 4.8 | 12.9 | 0.00 | 0.00 | 0.00 | 77 | 1009.1 |
| 20260509191713 | 16 | 67 | 9.7 | 27.4 | 0.00 | 0.00 | 0.00 | 76 | 1008.9 |
| 20260509191634 | 15 | 71 | 6.4 | 12.9 | 0.00 | 0.00 | 0.00 | 77 | 1009.1 |
| 20260509191537 | 15 | 117 | 6.4 | 16.1 | 0.00 | 0.00 | 0.00 | 77 | 1009.0 |
| 20260509191455 | 15 | 80 | 6.4 | 16.1 | 0.00 | 0.00 | 0.00 | 77 | 1009.0 |
| 20260509191413 | 15 | 85 | 6.4 | 20.9 | 0.00 | 0.00 | 0.00 | 76 | 1009.1 |
| 20260509191129 | 15 | 84 | 4.8 | 20.9 | 0.00 | 0.00 | 0.00 | 77 | 1009.1 |
| 20260509191034 | 15 | 63 | 4.8 | 20.9 | 0.00 | 0.00 | 0.00 | 77 | 1009.0 |
| 20260509190952 | 15 | 59 | 6.4 | 20.9 | 0.00 | 0.00 | 0.00 | 76 | 1008.9 |
| 20260509190910 | 15 | 88 | 8.0 | 20.9 | 0.00 | 0.00 | 0.00 | 76 | 1008.9 |
| 20260509190646 | 15 | 84 | 8.0 | 20.9 | 0.00 | 0.00 | 0.00 | 76 | 1008.9 |
| 20260509190601 | 15 | 116 | 8.0 | 20.9 | 0.00 | 0.00 | 0.00 | 76 | 1008.9 |
| 20260509190320 | 15 | 149 | 6.4 | 19.3 | 0.00 | 0.00 | 0.00 | 77 | 1008.9 |
| 20260509190254 | 16 | 98 | 14.5 | 24.1 | 0.00 | 0.00 | 0.00 | 76 | 1008.9 |
| 20260509190222 | 15 | 102 | 6.4 | 19.3 | 0.00 | 0.00 | 0.00 | 76 | 1008.8 |
| 20260509190129 | 15 | 102 | 6.4 | 19.3 | 0.00 | 0.00 | 0.00 | 76 | 1008.8 |
| 20260509190015 | 15 | 126 | 8.0 | 19.3 | 0.00 | 0.00 | 0.00 | 77 | 1008.8 |
| 20260509185915 | 15 | 138 | 9.7 | 19.3 | 0.00 | 0.00 | 0.00 | 77 | 1008.8 |
| 20260509185830 | 16 | 71 | 9.7 | 20.9 | 0.00 | 0.00 | 0.00 | 76 | 1009.0 |
| 20260509185813 | 15 | 87 | 9.7 | 17.7 | 0.00 | 0.00 | 0.00 | 77 | 1008.8 |
| 20260509185742 | 16 | 105 | 14.5 | 20.9 | 0.00 | 0.00 | 0.00 | 76 | 1009.0 |
| 20260509185712 | 15 | 115 | 6.4 | 17.7 | 0.00 | 0.00 | 0.00 | 77 | 1008.6 |
| 20260509185611 | 15 | 149 | 6.4 | 17.7 | 0.00 | 0.00 | 0.00 | 77 | 1008.8 |
| 20260509185510 | 15 | 131 | 6.4 | 17.7 | 0.00 | 0.00 | 0.00 | 77 | 1008.6 |
| 20260509185411 | 15 | 98 | 8.0 | 17.7 | 0.00 | 0.00 | 0.00 | 77 | 1008.6 |
| 20260509185350 | 16 | 90 | 9.7 | 24.1 | 0.00 | 0.00 | 0.00 | 77 | 1009.0 |
| 20260509185308 | 15 | 108 | 11.3 | 17.7 | 0.00 | 0.00 | 0.00 | 77 | 1008.6 |
| 20260509185206 | 15 | 104 | 8.0 | 17.7 | 0.00 | 0.00 | 0.00 | 77 | 1008.6 |
| 20260509185144 | 16 | 57 | 11.3 | 22.5 | 0.00 | 0.00 | 0.00 | 77 | 1008.9 |
| 20260509185105 | 15 | 138 | 4.8 | 16.1 | 0.00 | 0.00 | 0.00 | 77 | 1008.5 |
| 20260509185004 | 15 | 83 | 4.8 | 16.1 | 0.00 | 0.00 | 0.00 | 78 | 1008.5 |
| 20260509184913 | 15 | 144 | 4.8 | 17.7 | 0.00 | 0.00 | 0.00 | 78 | 1008.5 |
| 20260509184826 | 15 | 101 | 6.4 | 17.7 | 0.00 | 0.00 | 0.00 | 78 | 1008.5 |
| 20260509184744 | 15 | 117 | 6.4 | 17.7 | 0.00 | 0.00 | 0.00 | 78 | 1008.5 |
| 20260509184700 | 15 | 83 | 6.4 | 25.7 | 0.00 | 0.00 | 0.00 | 78 | 1008.4 |
| 20260509184438 | 15 | 133 | 6.4 | 25.7 | 0.00 | 0.00 | 0.00 | 78 | 1008.6 |
| 20260509184351 | 15 | 140 | 8.0 | 25.7 | 0.00 | 0.00 | 0.00 | 78 | 1008.5 |
| 20260509184309 | 15 | 128 | 9.7 | 25.7 | 0.00 | 0.00 | 0.00 | 78 | 1008.5 |
| 20260509184228 | 15 | 137 | 8.0 | 25.7 | 0.00 | 0.00 | 0.00 | 78 | 1008.6 |
| 20260509184004 | 15 | 51 | 11.3 | 25.7 | 0.00 | 0.00 | 0.00 | 78 | 1008.6 |
| 20260509183919 | 15 | 103 | 12.9 | 25.7 | 0.00 | 0.00 | 0.00 | 78 | 1008.6 |
| 20260509183838 | 15 | 72 | 11.3 | 25.7 | 0.00 | 0.00 | 0.00 | 78 | 1008.6 |
| 20260509183755 | 15 | 140 | 6.4 | 20.9 | 0.00 | 0.00 | 0.00 | 78 | 1008.8 |
| 20260509183531 | 15 | 117 | 9.7 | 20.9 | 0.00 | 0.00 | 0.00 | 78 | 1008.6 |
| 20260509183304 | 15 | 101 | 12.9 | 20.9 | 0.00 | 0.00 | 0.00 | 78 | 1008.8 |
| 20260509182842 | 15 | 112 | 8.0 | 17.7 | 0.00 | 0.00 | 0.00 | 78 | 1008.6 |
| 20260509182800 | 15 | 67 | 8.0 | 20.9 | 0.00 | 0.00 | 0.00 | 78 | 1008.8 |
| 20260509182718 | 15 | 67 | 6.4 | 20.9 | 0.00 | 0.00 | 0.00 | 79 | 1008.8 |
| 20260509182452 | 15 | 84 | 9.7 | 20.9 | 0.00 | 0.00 | 0.00 | 78 | 1008.8 |
| 20260509182407 | 15 | 81 | 11.3 | 20.9 | 0.00 | 0.00 | 0.00 | 78 | 1008.8 |
| 20260509182328 | 15 | 67 | 9.7 | 20.9 | 0.00 | 0.00 | 0.00 | 78 | 1008.8 |
| 20260509182131 | 15 | 80 | 9.7 | 20.9 | 0.00 | 0.00 | 0.00 | 78 | 1008.8 |
| 20260509182030 | 15 | 76 | 12.9 | 20.9 | 0.00 | 0.00 | 0.00 | 78 | 1008.8 |
| 20260509181929 | 15 | 99 | 11.3 | 20.9 | 0.00 | 0.00 | 0.00 | 78 | 1008.8 |
| 20260509181837 | 15 | 95 | 9.7 | 19.3 | 0.00 | 0.00 | 0.00 | 78 | 1008.8 |
| 20260509181752 | 15 | 82 | 11.3 | 19.3 | 0.00 | 0.00 | 0.00 | 78 | 1008.8 |
| 20260509181712 | 15 | 31 | 9.7 | 19.3 | 0.00 | 0.00 | 0.00 | 78 | 1008.6 |
| 20260509181523 | 15 | 114 | 9.7 | 19.3 | 0.00 | 0.00 | 0.00 | 78 | 1008.8 |
| 20260509181423 | 15 | 63 | 11.3 | 19.3 | 0.00 | 0.00 | 0.00 | 78 | 1008.8 |
| 20260509181334 | 15 | 75 | 9.7 | 19.3 | 0.00 | 0.00 | 0.00 | 78 | 1008.8 |
| 20260509181256 | 17 | 93 | 12.9 | 27.4 | 0.00 | 0.00 | 0.00 | 77 | 1008.8 |
| 20260509181220 | 15 | 70 | 9.7 | 19.3 | 0.00 | 0.00 | 0.00 | 78 | 1008.8 |
| 20260509181118 | 15 | 93 | 11.3 | 19.3 | 0.00 | 0.00 | 0.00 | 78 | 1008.6 |
| 20260509181018 | 15 | 81 | 11.3 | 19.3 | 0.00 | 0.00 | 0.00 | 78 | 1008.8 |
| 20260509180958 | 17 | 98 | 16.1 | 27.4 | 0.00 | 0.00 | 0.00 | 76 | 1008.8 |
| 20260509180918 | 15 | 92 | 8.0 | 19.3 | 0.00 | 0.00 | 0.00 | 78 | 1008.8 |
| 20260509180831 | 15 | 61 | 8.0 | 19.3 | 0.00 | 0.00 | 0.00 | 78 | 1008.9 |
| 20260509180716 | 15 | 51 | 12.9 | 19.3 | 0.00 | 0.00 | 0.00 | 77 | 1008.8 |
| 20260509180634 | 15 | 83 | 11.3 | 19.3 | 0.00 | 0.00 | 0.00 | 77 | 1008.9 |
| 20260509180550 | 15 | 53 | 9.7 | 19.3 | 0.00 | 0.00 | 0.00 | 77 | 1008.9 |
| 20260509180510 | 15 | 61 | 9.7 | 19.3 | 0.00 | 0.00 | 0.00 | 77 | 1008.9 |
| 20260509180426 | 15 | 72 | 9.7 | 19.3 | 0.00 | 0.00 | 0.00 | 77 | 1008.9 |
| 20260509180203 | 16 | 76 | 9.7 | 20.9 | 0.00 | 0.00 | 0.00 | 77 | 1008.9 |
| 20260509180119 | 16 | 131 | 11.3 | 20.9 | 0.00 | 0.00 | 0.00 | 77 | 1008.9 |
| 20260509180033 | 16 | 74 | 11.3 | 20.9 | 0.00 | 0.00 | 0.00 | 77 | 1008.9 |
| 20260509175949 | 16 | 117 | 8.0 | 20.9 | 0.00 | 0.00 | 0.00 | 77 | 1008.8 |
| 20260509175540 | 16 | 57 | 9.7 | 20.9 | 0.00 | 0.00 | 0.00 | 77 | 1008.9 |
| 20260509175501 | 16 | 123 | 11.3 | 20.9 | 0.00 | 0.00 | 0.00 | 77 | 1008.9 |
| 20260509175236 | 16 | 85 | 11.3 | 20.9 | 0.00 | 0.00 | 0.00 | 77 | 1008.9 |
| 20260509175154 | 16 | 113 | 8.0 | 20.9 | 0.00 | 0.00 | 0.00 | 76 | 1008.9 |
| 20260509174953 | 16 | 64 | 4.8 | 19.3 | 0.00 | 0.00 | 0.00 | 77 | 1008.9 |
| 20260509174942 | 17 | 110 | 14.5 | 22.5 | 0.00 | 0.00 | 0.00 | 76 | 1008.8 |
| 20260509174854 | 16 | 110 | 6.4 | 19.3 | 0.00 | 0.00 | 0.00 | 77 | 1008.9 |
| 20260509174839 | 17 | 101 | 12.9 | 22.5 | 0.00 | 0.00 | 0.00 | 76 | 1008.6 |
| 20260509174753 | 16 | 98 | 9.7 | 19.3 | 0.00 | 0.00 | 0.00 | 76 | 1009.0 |
| 20260509174712 | 16 | 85 | 12.9 | 20.9 | 0.00 | 0.00 | 0.00 | 76 | 1008.8 |
| 20260509174629 | 16 | 76 | 11.3 | 20.9 | 0.00 | 0.00 | 0.00 | 76 | 1008.9 |
| 20260509174547 | 16 | 128 | 11.3 | 20.9 | 0.00 | 0.00 | 0.00 | 76 | 1008.9 |
| 20260509174505 | 16 | 129 | 9.7 | 20.9 | 0.00 | 0.00 | 0.00 | 76 | 1008.8 |
| 20260509174054 | 16 | 111 | 9.7 | 20.9 | 0.00 | 0.00 | 0.00 | 76 | 1008.8 |
| 20260509174012 | 16 | 124 | 11.3 | 20.9 | 0.00 | 0.00 | 0.00 | 76 | 1008.8 |
| 20260509173930 | 16 | 71 | 12.9 | 20.9 | 0.00 | 0.00 | 0.00 | 76 | 1008.8 |
| 20260509173736 | 16 | 99 | 11.3 | 20.9 | 0.00 | 0.00 | 0.00 | 76 | 1008.8 |
| 20260509173636 | 16 | 114 | 8.0 | 20.9 | 0.00 | 0.00 | 0.00 | 76 | 1008.8 |
| 20260509173625 | 17 | 86 | 9.7 | 19.3 | 0.00 | 0.00 | 0.00 | 76 | 1008.8 |
| 20260509173534 | 16 | 92 | 6.4 | 20.9 | 0.00 | 0.00 | 0.00 | 76 | 1008.8 |
| 20260509173445 | 17 | 71 | 4.8 | 19.3 | 0.00 | 0.00 | 0.00 | 77 | 1008.8 |
| 20260509173432 | 16 | 139 | 9.7 | 20.9 | 0.00 | 0.00 | 0.00 | 76 | 1008.9 |
| 20260509173333 | 16 | 108 | 12.9 | 20.9 | 0.00 | 0.00 | 0.00 | 76 | 1008.8 |
| 20260509173230 | 16 | 74 | 12.9 | 20.9 | 0.00 | 0.00 | 0.00 | 76 | 1008.9 |
| 20260509173139 | 16 | 98 | 11.3 | 22.5 | 0.00 | 0.00 | 0.00 | 76 | 1008.9 |
| 20260509173058 | 16 | 74 | 8.0 | 22.5 | 0.00 | 0.00 | 0.00 | 77 | 1008.9 |
| 20260509173016 | 16 | 97 | 8.0 | 22.5 | 0.00 | 0.00 | 0.00 | 76 | 1008.9 |
| 20260509172934 | 16 | 98 | 11.3 | 22.5 | 0.00 | 0.00 | 0.00 | 76 | 1008.9 |
| 20260509172849 | 16 | 84 | 12.9 | 25.7 | 0.00 | 0.00 | 0.00 | 76 | 1008.9 |
| 20260509172625 | 16 | 126 | 14.5 | 25.7 | 0.00 | 0.00 | 0.00 | 76 | 1008.8 |
| 20260509172543 | 16 | 97 | 11.3 | 25.7 | 0.00 | 0.00 | 0.00 | 76 | 1008.8 |
| 20260509172448 | 16 | 96 | 9.7 | 25.7 | 0.00 | 0.00 | 0.00 | 76 | 1008.9 |
| 20260509172117 | 16 | 98 | 9.7 | 25.7 | 0.00 | 0.00 | 0.00 | 76 | 1008.9 |
| 20260509172026 | 16 | 114 | 11.3 | 25.7 | 0.00 | 0.00 | 0.00 | 76 | 1008.9 |
| 20260509171942 | 16 | 93 | 16.1 | 27.4 | 0.00 | 0.00 | 0.00 | 76 | 1008.9 |
| 20260509171857 | 16 | 77 | 11.3 | 27.4 | 0.00 | 0.00 | 0.00 | 76 | 1008.8 |
| 20260509171609 | 16 | 84 | 9.7 | 27.4 | 0.00 | 0.00 | 0.00 | 76 | 1008.9 |
| 20260509171513 | 16 | 90 | 11.3 | 27.4 | 0.00 | 0.00 | 0.00 | 76 | 1008.8 |
| 20260509171421 | 16 | 62 | 14.5 | 27.4 | 0.00 | 0.00 | 0.00 | 76 | 1008.9 |
| 20260509171308 | 16 | 93 | 14.5 | 27.4 | 0.00 | 0.00 | 0.00 | 76 | 1009.0 |
| 20260509171200 | 16 | 113 | 14.5 | 27.4 | 0.00 | 0.00 | 0.00 | 76 | 1008.9 |
| 20260509171103 | 16 | 93 | 14.5 | 27.4 | 0.00 | 0.00 | 0.00 | 76 | 1008.9 |
| 20260509170956 | 16 | 90 | 11.3 | 27.4 | 0.00 | 0.00 | 0.00 | 76 | 1008.9 |
| 20260509170915 | 16 | 70 | 11.3 | 24.1 | 0.00 | 0.00 | 0.00 | 76 | 1008.9 |
| 20260509170835 | 16 | 129 | 17.7 | 24.1 | 0.00 | 0.00 | 0.00 | 75 | 1008.9 |
| 20260509170752 | 16 | 121 | 17.7 | 24.1 | 0.00 | 0.00 | 0.00 | 75 | 1009.0 |
| 20260509170506 | 16 | 126 | 11.3 | 20.9 | 0.00 | 0.00 | 0.00 | 75 | 1009.0 |
| 20260509170423 | 16 | 76 | 9.7 | 20.9 | 0.00 | 0.00 | 0.00 | 76 | 1009.0 |
| 20260509170341 | 16 | 78 | 9.7 | 20.9 | 0.00 | 0.00 | 0.00 | 76 | 1009.0 |
| 20260509170259 | 16 | 132 | 9.7 | 20.9 | 0.00 | 0.00 | 0.00 | 76 | 1009.0 |
| 20260509170215 | 16 | 126 | 8.0 | 20.9 | 0.00 | 0.00 | 0.00 | 76 | 1009.0 |
| 20260509165801 | 17 | 67 | 14.5 | 24.1 | 0.00 | 0.00 | 0.00 | 75 | 1009.0 |
| 20260509165744 | 16 | 114 | 14.5 | 24.1 | 0.00 | 0.00 | 0.00 | 77 | 1009.1 |
| 20260509165657 | 17 | 93 | 9.7 | 20.9 | 0.00 | 0.00 | 0.00 | 75 | 1008.9 |
| 20260509165636 | 16 | 102 | 11.3 | 24.1 | 0.00 | 0.00 | 0.00 | 77 | 1009.1 |
| 20260509165540 | 16 | 106 | 11.3 | 24.1 | 0.00 | 0.00 | 0.00 | 77 | 1009.0 |
| 20260509165524 | 17 | 74 | 11.3 | 20.9 | 0.00 | 0.00 | 0.00 | 75 | 1008.9 |
| 20260509165438 | 16 | 71 | 9.7 | 24.1 | 0.00 | 0.00 | 0.00 | 77 | 1009.0 |
| 20260509165422 | 17 | 109 | 9.7 | 19.3 | 0.00 | 0.00 | 0.00 | 75 | 1009.0 |
| 20260509165342 | 16 | 65 | 6.4 | 24.1 | 0.00 | 0.00 | 0.00 | 77 | 1009.0 |
| 20260509165302 | 16 | 114 | 6.4 | 24.1 | 0.00 | 0.00 | 0.00 | 77 | 1009.0 |
| 20260509165214 | 16 | 111 | 6.4 | 24.1 | 0.00 | 0.00 | 0.00 | 77 | 1008.9 |
| 20260509165019 | 17 | 74 | 8.0 | 19.3 | 0.00 | 0.00 | 0.00 | 76 | 1009.0 |
| 20260509164933 | 16 | 62 | 11.3 | 24.1 | 0.00 | 0.00 | 0.00 | 77 | 1008.9 |
| 20260509164839 | 16 | 63 | 11.3 | 24.1 | 0.00 | 0.00 | 0.00 | 77 | 1009.0 |
| 20260509164754 | 16 | 61 | 11.3 | 20.9 | 0.00 | 0.00 | 0.00 | 77 | 1008.9 |
| 20260509164712 | 16 | 98 | 12.9 | 22.5 | 0.00 | 0.00 | 0.00 | 77 | 1008.9 |
| 20260509164431 | 16 | 75 | 12.9 | 24.1 | 0.00 | 0.00 | 0.00 | 76 | 1008.9 |
| 20260509164352 | 16 | 59 | 11.3 | 24.1 | 0.00 | 0.00 | 0.00 | 76 | 1008.9 |
| 20260509164306 | 16 | 88 | 11.3 | 24.1 | 0.00 | 0.00 | 0.00 | 77 | 1008.9 |
| 20260509164121 | 16 | 130 | 11.3 | 24.1 | 0.00 | 0.00 | 0.00 | 77 | 1008.9 |
| 20260509164020 | 16 | 72 | 11.3 | 24.1 | 0.00 | 0.00 | 0.00 | 77 | 1008.9 |
| 20260509163938 | 16 | 67 | 12.9 | 24.1 | 0.00 | 0.00 | 0.00 | 77 | 1008.9 |
| 20260509163854 | 16 | 102 | 14.5 | 24.1 | 0.00 | 0.00 | 0.00 | 76 | 1009.0 |
| 20260509163611 | 16 | 111 | 11.3 | 24.1 | 0.00 | 0.00 | 0.00 | 77 | 1008.9 |
| 20260509163524 | 17 | 93 | 14.5 | 24.1 | 0.00 | 0.00 | 0.00 | 74 | 1009.2 |
| 20260509163509 | 16 | 61 | 11.3 | 24.1 | 0.00 | 0.00 | 0.00 | 77 | 1009.0 |
| 20260509163405 | 16 | 93 | 11.3 | 24.1 | 0.00 | 0.00 | 0.00 | 77 | 1008.9 |
| 20260509163304 | 16 | 105 | 12.9 | 24.1 | 0.00 | 0.00 | 0.00 | 77 | 1008.9 |
| 20260509163237 | 17 | 69 | 9.7 | 22.5 | 0.00 | 0.00 | 0.00 | 75 | 1009.4 |
| 20260509163209 | 16 | 123 | 12.9 | 24.1 | 0.00 | 0.00 | 0.00 | 77 | 1009.0 |
| 20260509163128 | 16 | 59 | 12.9 | 24.1 | 0.00 | 0.00 | 0.00 | 77 | 1008.8 |
| 20260509163045 | 16 | 74 | 11.3 | 24.1 | 0.00 | 0.00 | 0.00 | 77 | 1008.9 |
| 20260509162804 | 17 | 67 | 9.7 | 22.5 | 0.00 | 0.00 | 0.00 | 77 | 1008.9 |
| 20260509162722 | 17 | 74 | 8.0 | 22.5 | 0.00 | 0.00 | 0.00 | 77 | 1008.9 |
| 20260509162642 | 17 | 61 | 11.3 | 27.4 | 0.00 | 0.00 | 0.00 | 77 | 1008.8 |
| 20260509162418 | 17 | 100 | 11.3 | 27.4 | 0.00 | 0.00 | 0.00 | 76 | 1008.8 |
| 20260509162335 | 17 | 84 | 9.7 | 27.4 | 0.00 | 0.00 | 0.00 | 77 | 1008.8 |
| 20260509162252 | 17 | 88 | 9.7 | 27.4 | 0.00 | 0.00 | 0.00 | 77 | 1008.8 |
| 20260509162210 | 17 | 76 | 12.9 | 27.4 | 0.00 | 0.00 | 0.00 | 76 | 1008.8 |
| 20260509162126 | 17 | 63 | 9.7 | 27.4 | 0.00 | 0.00 | 0.00 | 76 | 1008.8 |
| 20260509162043 | 17 | 126 | 12.9 | 27.4 | 0.00 | 0.00 | 0.00 | 76 | 1008.9 |
| 20260509161813 | 17 | 79 | 11.3 | 27.4 | 0.00 | 0.00 | 0.00 | 76 | 1008.8 |
| 20260509161731 | 17 | 102 | 9.7 | 22.5 | 0.00 | 0.00 | 0.00 | 76 | 1008.9 |
| 20260509161636 | 17 | 102 | 8.0 | 22.5 | 0.00 | 0.00 | 0.00 | 77 | 1008.8 |
| 20260509161554 | 17 | 71 | 4.8 | 22.5 | 0.00 | 0.00 | 0.00 | 77 | 1008.9 |
| 20260509161321 | 17 | 139 | 11.3 | 22.5 | 0.00 | 0.00 | 0.00 | 76 | 1008.9 |
| 20260509161058 | 17 | 93 | 14.5 | 22.5 | 0.00 | 0.00 | 0.00 | 76 | 1008.8 |
| 20260509160833 | 17 | 96 | 12.9 | 22.5 | 0.00 | 0.00 | 0.00 | 76 | 1008.8 |
| 20260509160605 | 17 | 88 | 9.7 | 19.3 | 0.00 | 0.00 | 0.00 | 77 | 1008.8 |
| 20260509160523 | 17 | 72 | 9.7 | 19.3 | 0.00 | 0.00 | 0.00 | 76 | 1008.6 |
| 20260509160244 | 17 | 93 | 9.7 | 19.3 | 0.00 | 0.00 | 0.00 | 76 | 1008.8 |
| 20260509160200 | 17 | 71 | 9.7 | 19.3 | 0.00 | 0.00 | 0.00 | 76 | 1008.8 |
| 20260509160118 | 17 | 76 | 8.0 | 19.3 | 0.00 | 0.00 | 0.00 | 76 | 1008.8 |
| 20260509155816 | 17 | 104 | 9.7 | 19.3 | 0.00 | 0.00 | 0.00 | 77 | 1008.9 |
| 20260509155800 | 17 | 115 | 8.0 | 20.9 | 0.00 | 0.00 | 0.00 | 75 | 1009.4 |
| 20260509155719 | 17 | 117 | 12.9 | 19.3 | 0.00 | 0.00 | 0.00 | 76 | 1008.8 |
| 20260509155620 | 17 | 93 | 8.0 | 17.7 | 0.00 | 0.00 | 0.00 | 76 | 1008.8 |
| 20260509155536 | 17 | 72 | 8.0 | 17.7 | 0.00 | 0.00 | 0.00 | 76 | 1008.8 |
| 20260509155455 | 17 | 65 | 6.4 | 17.7 | 0.00 | 0.00 | 0.00 | 76 | 1008.8 |
| 20260509155212 | 17 | 56 | 12.9 | 17.7 | 0.00 | 0.00 | 0.00 | 76 | 1008.8 |
| 20260509155108 | 17 | 71 | 11.3 | 17.7 | 0.00 | 0.00 | 0.00 | 75 | 1008.8 |
| 20260509155023 | 17 | 109 | 11.3 | 20.9 | 0.00 | 0.00 | 0.00 | 76 | 1009.5 |
| 20260509155007 | 17 | 67 | 9.7 | 17.7 | 0.00 | 0.00 | 0.00 | 76 | 1008.8 |
| 20260509154906 | 17 | 65 | 9.7 | 17.7 | 0.00 | 0.00 | 0.00 | 76 | 1008.8 |
| 20260509154805 | 17 | 77 | 9.7 | 14.5 | 0.00 | 0.00 | 0.00 | 75 | 1008.9 |
| 20260509154736 | 17 | 80 | 12.9 | 22.5 | 0.00 | 0.00 | 0.00 | 74 | 1009.6 |
| 20260509154705 | 17 | 79 | 6.4 | 14.5 | 0.00 | 0.00 | 0.00 | 75 | 1008.9 |
| 20260509154602 | 17 | 63 | 6.4 | 16.1 | 0.00 | 0.00 | 0.00 | 75 | 1008.9 |
| 20260509154507 | 17 | 110 | 8.0 | 16.1 | 0.00 | 0.00 | 0.00 | 75 | 1008.9 |
| 20260509154425 | 17 | 139 | 6.4 | 24.1 | 0.00 | 0.00 | 0.00 | 76 | 1008.9 |
| 20260509154341 | 17 | 110 | 6.4 | 24.1 | 0.00 | 0.00 | 0.00 | 75 | 1008.9 |
| 20260509154253 | 17 | 69 | 4.8 | 24.1 | 0.00 | 0.00 | 0.00 | 76 | 1008.9 |
| 20260509154212 | 17 | 65 | 6.4 | 24.1 | 0.00 | 0.00 | 0.00 | 75 | 1008.9 |
| 20260509154128 | 17 | 88 | 8.0 | 24.1 | 0.00 | 0.00 | 0.00 | 75 | 1008.9 |
| 20260509154042 | 17 | 65 | 8.0 | 24.1 | 0.00 | 0.00 | 0.00 | 75 | 1008.9 |
| 20260509153959 | 17 | 55 | 11.3 | 24.1 | 0.00 | 0.00 | 0.00 | 75 | 1008.9 |
| 20260509153917 | 17 | 63 | 12.9 | 24.1 | 0.00 | 0.00 | 0.00 | 75 | 1009.0 |
| 20260509153654 | 17 | 86 | 12.9 | 24.1 | 0.00 | 0.00 | 0.00 | 75 | 1008.9 |
| 20260509153428 | 17 | 119 | 8.0 | 20.9 | 0.00 | 0.00 | 0.00 | 75 | 1009.0 |
| 20260509153203 | 17 | 93 | 12.9 | 20.9 | 0.00 | 0.00 | 0.00 | 75 | 1009.0 |
| 20260509152750 | 17 | 93 | 11.3 | 19.3 | 0.00 | 0.00 | 0.00 | 75 | 1009.0 |
| 20260509152706 | 17 | 103 | 11.3 | 19.3 | 0.00 | 0.00 | 0.00 | 75 | 1009.1 |
| 20260509152621 | 17 | 101 | 9.7 | 19.3 | 0.00 | 0.00 | 0.00 | 75 | 1009.2 |
| 20260509152537 | 17 | 111 | 12.9 | 24.1 | 0.00 | 0.00 | 0.00 | 75 | 1009.2 |
| 20260509152312 | 17 | 32 | 11.3 | 24.1 | 0.00 | 0.00 | 0.00 | 75 | 1009.2 |
| 20260509152227 | 17 | 117 | 11.3 | 24.1 | 0.00 | 0.00 | 0.00 | 75 | 1009.1 |
| 20260509152024 | 17 | 114 | 9.7 | 24.1 | 0.00 | 0.00 | 0.00 | 75 | 1009.2 |
| 20260509152000 | 17 | 110 | 12.9 | 22.5 | 0.00 | 0.00 | 0.00 | 74 | 1009.5 |
| 20260509151924 | 17 | 109 | 8.0 | 24.1 | 0.00 | 0.00 | 0.00 | 76 | 1009.2 |
| 20260509151840 | 17 | 61 | 6.4 | 24.1 | 0.00 | 0.00 | 0.00 | 75 | 1009.2 |
| 20260509151759 | 17 | 128 | 11.3 | 24.1 | 0.00 | 0.00 | 0.00 | 75 | 1009.3 |
| 20260509151516 | 17 | 117 | 16.1 | 24.1 | 0.00 | 0.00 | 0.00 | 74 | 1009.2 |
| 20260509151412 | 17 | 124 | 12.9 | 24.1 | 0.00 | 0.00 | 0.00 | 75 | 1009.3 |
| 20260509151320 | 17 | 102 | 8.0 | 22.5 | 0.00 | 0.00 | 0.00 | 75 | 1009.2 |
| 20260509151239 | 17 | 131 | 6.4 | 22.5 | 0.00 | 0.00 | 0.00 | 75 | 1009.3 |
| 20260509151155 | 17 | 65 | 9.7 | 22.5 | 0.00 | 0.00 | 0.00 | 75 | 1009.3 |
| 20260509150958 | 17 | 96 | 9.7 | 25.7 | 0.00 | 0.00 | 0.00 | 75 | 1009.5 |
| 20260509150909 | 17 | 117 | 12.9 | 22.5 | 0.00 | 0.00 | 0.00 | 75 | 1009.4 |
| 20260509150826 | 17 | 105 | 11.3 | 22.5 | 0.00 | 0.00 | 0.00 | 74 | 1009.4 |
| 20260509150745 | 17 | 81 | 9.7 | 19.3 | 0.00 | 0.00 | 0.00 | 75 | 1009.4 |
| 20260509150500 | 17 | 121 | 8.0 | 20.9 | 0.00 | 0.00 | 0.00 | 75 | 1009.3 |
| 20260509150420 | 17 | 113 | 9.7 | 20.9 | 0.00 | 0.00 | 0.00 | 75 | 1009.4 |
| 20260509150336 | 17 | 50 | 11.3 | 20.9 | 0.00 | 0.00 | 0.00 | 75 | 1009.4 |
| 20260509150254 | 17 | 97 | 9.7 | 20.9 | 0.00 | 0.00 | 0.00 | 75 | 1009.5 |
| 20260509150104 | 17 | 55 | 9.7 | 20.9 | 0.00 | 0.00 | 0.00 | 75 | 1009.4 |
| 20260509145952 | 17 | 50 | 9.7 | 20.9 | 0.00 | 0.00 | 0.00 | 76 | 1009.4 |
| 20260509145856 | 17 | 86 | 14.5 | 20.9 | 0.00 | 0.00 | 0.00 | 75 | 1009.5 |
| 20260509145812 | 17 | 74 | 12.9 | 20.9 | 0.00 | 0.00 | 0.00 | 74 | 1009.5 |
| 20260509145726 | 17 | 84 | 9.7 | 20.9 | 0.00 | 0.00 | 0.00 | 75 | 1009.5 |
| 20260509145442 | 17 | 81 | 11.3 | 20.9 | 0.00 | 0.00 | 0.00 | 75 | 1009.5 |
| 20260509145344 | 17 | 104 | 11.3 | 20.9 | 0.00 | 0.00 | 0.00 | 75 | 1009.5 |
| 20260509145256 | 17 | 104 | 9.7 | 20.9 | 0.00 | 0.00 | 0.00 | 75 | 1009.5 |
| 20260509145212 | 17 | 92 | 11.3 | 20.9 | 0.00 | 0.00 | 0.00 | 76 | 1009.5 |
| 20260509145131 | 17 | 82 | 14.5 | 22.5 | 0.00 | 0.00 | 0.00 | 75 | 1009.5 |
| 20260509144905 | 17 | 80 | 9.7 | 22.5 | 0.00 | 0.00 | 0.00 | 75 | 1009.5 |
| 20260509144823 | 17 | 49 | 9.7 | 22.5 | 0.00 | 0.00 | 0.00 | 75 | 1009.5 |
| 20260509144738 | 17 | 83 | 14.5 | 22.5 | 0.00 | 0.00 | 0.00 | 74 | 1009.5 |
| 20260509144656 | 17 | 71 | 12.9 | 22.5 | 0.00 | 0.00 | 0.00 | 73 | 1009.5 |
| 20260509144229 | 17 | 112 | 12.9 | 22.5 | 0.00 | 0.00 | 0.00 | 74 | 1009.5 |
| 20260509144128 | 17 | 69 | 12.9 | 24.1 | 0.00 | 0.00 | 0.00 | 74 | 1009.5 |
| 20260509144028 | 17 | 71 | 9.7 | 24.1 | 0.00 | 0.00 | 0.00 | 74 | 1009.5 |
| 20260509144006 | 17 | 150 | 12.9 | 25.7 | 0.00 | 0.00 | 0.00 | 74 | 1009.9 |
| 20260509143931 | 17 | 61 | 9.7 | 24.1 | 0.00 | 0.00 | 0.00 | 74 | 1009.5 |
| 20260509143848 | 17 | 51 | 11.3 | 24.1 | 0.00 | 0.00 | 0.00 | 75 | 1009.5 |
| 20260509143804 | 17 | 90 | 11.3 | 24.1 | 0.00 | 0.00 | 0.00 | 75 | 1009.5 |
| 20260509143522 | 17 | 101 | 8.0 | 25.7 | 0.00 | 0.00 | 0.00 | 75 | 1009.5 |
| 20260509143440 | 17 | 130 | 11.3 | 25.7 | 0.00 | 0.00 | 0.00 | 75 | 1009.5 |
| 20260509143359 | 17 | 88 | 14.5 | 25.7 | 0.00 | 0.00 | 0.00 | 74 | 1009.6 |
| 20260509143116 | 17 | 117 | 12.9 | 25.7 | 0.00 | 0.00 | 0.00 | 74 | 1009.6 |
| 20260509143053 | 17 | 81 | 14.5 | 25.7 | 0.00 | 0.00 | 0.00 | 74 | 1010.0 |
| 20260509143016 | 17 | 123 | 12.9 | 25.7 | 0.00 | 0.00 | 0.00 | 74 | 1009.6 |
| 20260509142914 | 17 | 109 | 12.9 | 25.7 | 0.00 | 0.00 | 0.00 | 75 | 1009.7 |
| 20260509142814 | 17 | 77 | 14.5 | 25.7 | 0.00 | 0.00 | 0.00 | 74 | 1009.7 |
| 20260509142711 | 17 | 137 | 14.5 | 25.7 | 0.00 | 0.00 | 0.00 | 75 | 1009.6 |
| 20260509142648 | 17 | 88 | 11.3 | 22.5 | 0.00 | 0.00 | 0.00 | 74 | 1009.9 |
| 20260509142613 | 17 | 129 | 9.7 | 25.7 | 0.00 | 0.00 | 0.00 | 74 | 1009.7 |
| 20260509142526 | 17 | 93 | 14.5 | 30.6 | 0.00 | 0.00 | 0.00 | 74 | 1010.0 |
| 20260509142508 | 17 | 67 | 9.7 | 25.7 | 0.00 | 0.00 | 0.00 | 76 | 1009.7 |
| 20260509142408 | 17 | 84 | 9.7 | 25.7 | 0.00 | 0.00 | 0.00 | 75 | 1009.8 |
| 20260509142307 | 17 | 61 | 14.5 | 25.7 | 0.00 | 0.00 | 0.00 | 76 | 1009.7 |
| 20260509142205 | 17 | 130 | 16.1 | 25.7 | 0.00 | 0.00 | 0.00 | 74 | 1009.8 |
| 20260509142142 | 17 | 67 | 14.5 | 30.6 | 0.00 | 0.00 | 0.00 | 73 | 1010.0 |
| 20260509142106 | 17 | 63 | 14.5 | 25.7 | 0.00 | 0.00 | 0.00 | 74 | 1009.7 |
| 20260509142003 | 17 | 74 | 11.3 | 25.7 | 0.00 | 0.00 | 0.00 | 74 | 1009.8 |
| 20260509141921 | 17 | 57 | 11.3 | 25.7 | 0.00 | 0.00 | 0.00 | 74 | 1009.8 |
| 20260509141839 | 17 | 63 | 12.9 | 25.7 | 0.00 | 0.00 | 0.00 | 75 | 1009.8 |
| 20260509141757 | 17 | 104 | 11.3 | 25.7 | 0.00 | 0.00 | 0.00 | 75 | 1009.8 |
| 20260509141713 | 17 | 104 | 11.3 | 25.7 | 0.00 | 0.00 | 0.00 | 75 | 1009.9 |
| 20260509141452 | 17 | 88 | 9.7 | 25.7 | 0.00 | 0.00 | 0.00 | 75 | 1009.8 |
| 20260509141257 | 17 | 53 | 14.5 | 25.7 | 0.00 | 0.00 | 0.00 | 74 | 1009.9 |
| 20260509141210 | 17 | 105 | 16.1 | 25.7 | 0.00 | 0.00 | 0.00 | 74 | 1009.9 |
| 20260509141126 | 17 | 98 | 14.5 | 25.7 | 0.00 | 0.00 | 0.00 | 74 | 1009.9 |
| 20260509141044 | 17 | 93 | 16.1 | 25.7 | 0.00 | 0.00 | 0.00 | 74 | 1009.9 |
| 20260509140821 | 17 | 63 | 11.3 | 25.7 | 0.00 | 0.00 | 0.00 | 74 | 1010.0 |
| 20260509140739 | 17 | 100 | 12.9 | 25.7 | 0.00 | 0.00 | 0.00 | 74 | 1010.0 |
| 20260509140547 | 17 | 103 | 12.9 | 25.7 | 0.00 | 0.00 | 0.00 | 74 | 1010.0 |
| 20260509140445 | 17 | 99 | 12.9 | 25.7 | 0.00 | 0.00 | 0.00 | 74 | 1010.1 |
| 20260509140410 | 18 | 70 | 14.5 | 29.0 | 0.00 | 0.00 | 0.00 | 73 | 1010.1 |
| 20260509140344 | 17 | 70 | 11.3 | 25.7 | 0.00 | 0.00 | 0.00 | 74 | 1010.0 |
| 20260509140246 | 17 | 93 | 12.9 | 25.7 | 0.00 | 0.00 | 0.00 | 74 | 1010.0 |
| 20260509140205 | 17 | 133 | 16.1 | 25.7 | 0.00 | 0.00 | 0.00 | 73 | 1010.1 |
| 20260509140122 | 17 | 67 | 14.5 | 22.5 | 0.00 | 0.00 | 0.00 | 73 | 1010.0 |
| 20260509140024 | 17 | 93 | 11.3 | 22.5 | 0.00 | 0.00 | 0.00 | 74 | 1010.0 |
| 20260509135759 | 17 | 67 | 14.5 | 22.5 | 0.00 | 0.00 | 0.00 | 74 | 1009.9 |
| 20260509135719 | 17 | 67 | 16.1 | 30.6 | 0.00 | 0.00 | 0.00 | 74 | 1009.9 |
| 20260509135432 | 17 | 65 | 12.9 | 30.6 | 0.00 | 0.00 | 0.00 | 74 | 1009.9 |
| 20260509135331 | 17 | 69 | 12.9 | 30.6 | 0.00 | 0.00 | 0.00 | 74 | 1009.9 |
| 20260509135312 | 18 | 77 | 17.7 | 30.6 | 0.00 | 0.00 | 0.00 | 73 | 1010.3 |
| 20260509135229 | 17 | 104 | 11.3 | 30.6 | 0.00 | 0.00 | 0.00 | 74 | 1010.1 |
| 20260509135135 | 17 | 115 | 12.9 | 30.6 | 0.00 | 0.00 | 0.00 | 74 | 1010.0 |
| 20260509135042 | 17 | 121 | 16.1 | 30.6 | 0.00 | 0.00 | 0.00 | 74 | 1010.0 |
| 20260509134958 | 17 | 70 | 16.1 | 30.6 | 0.00 | 0.00 | 0.00 | 73 | 1009.9 |
| 20260509134917 | 17 | 77 | 14.5 | 30.6 | 0.00 | 0.00 | 0.00 | 73 | 1009.9 |
| 20260509134652 | 17 | 99 | 16.1 | 27.4 | 0.00 | 0.00 | 0.00 | 73 | 1010.0 |
| 20260509134610 | 18 | 111 | 14.5 | 27.4 | 0.00 | 0.00 | 0.00 | 74 | 1010.0 |
| 20260509134525 | 18 | 83 | 11.3 | 27.4 | 0.00 | 0.00 | 0.00 | 73 | 1010.0 |
| 20260509134300 | 18 | 76 | 14.5 | 29.0 | 0.00 | 0.00 | 0.00 | 73 | 1010.0 |
| 20260509134029 | 18 | 63 | 16.1 | 29.0 | 0.00 | 0.00 | 0.00 | 73 | 1010.0 |
| 20260509133946 | 18 | 123 | 14.5 | 29.0 | 0.00 | 0.00 | 0.00 | 73 | 1010.1 |
| 20260509133853 | 18 | 74 | 14.5 | 29.0 | 0.00 | 0.00 | 0.00 | 73 | 1010.1 |
| 20260509133610 | 18 | 113 | 14.5 | 29.0 | 0.00 | 0.00 | 0.00 | 73 | 1010.1 |
| 20260509133508 | 18 | 126 | 17.7 | 29.0 | 0.00 | 0.00 | 0.00 | 73 | 1010.1 |
| 20260509133406 | 18 | 88 | 17.7 | 30.6 | 0.00 | 0.00 | 0.00 | 72 | 1010.1 |
| 20260509133306 | 18 | 78 | 14.5 | 30.6 | 0.00 | 0.00 | 0.00 | 73 | 1010.2 |
| 20260509133208 | 18 | 107 | 16.1 | 30.6 | 0.00 | 0.00 | 0.00 | 73 | 1010.2 |
| 20260509133124 | 18 | 85 | 17.7 | 30.6 | 0.00 | 0.00 | 0.00 | 73 | 1010.2 |
| 20260509133044 | 18 | 81 | 16.1 | 30.6 | 0.00 | 0.00 | 0.00 | 72 | 1010.2 |
| 20260509132802 | 18 | 117 | 17.7 | 30.6 | 0.00 | 0.00 | 0.00 | 73 | 1010.3 |
| 20260509132658 | 18 | 74 | 19.3 | 30.6 | 0.00 | 0.00 | 0.00 | 72 | 1010.3 |
| 20260509132601 | 18 | 105 | 17.7 | 30.6 | 0.00 | 0.00 | 0.00 | 71 | 1010.2 |
| 20260509132546 | 18 | 67 | 14.5 | 24.1 | 0.00 | 0.00 | 0.00 | 71 | 1010.3 |
| 20260509132452 | 18 | 61 | 16.1 | 30.6 | 0.00 | 0.00 | 0.00 | 72 | 1010.2 |
| 20260509132351 | 18 | 83 | 14.5 | 27.4 | 0.00 | 0.00 | 0.00 | 72 | 1010.2 |
| 20260509132251 | 18 | 69 | 11.3 | 27.4 | 0.00 | 0.00 | 0.00 | 72 | 1010.3 |
| 20260509132216 | 18 | 77 | 11.3 | 25.7 | 0.00 | 0.00 | 0.00 | 71 | 1010.4 |
| 20260509132149 | 18 | 85 | 12.9 | 27.4 | 0.00 | 0.00 | 0.00 | 72 | 1010.2 |
| 20260509132051 | 18 | 78 | 16.1 | 27.4 | 0.00 | 0.00 | 0.00 | 72 | 1010.2 |
| 20260509131948 | 18 | 49 | 17.7 | 27.4 | 0.00 | 0.00 | 0.00 | 71 | 1010.2 |
| 20260509131918 | 18 | 128 | 14.5 | 32.2 | 0.00 | 0.00 | 0.00 | 71 | 1010.6 |
| 20260509131849 | 18 | 87 | 17.7 | 27.4 | 0.00 | 0.00 | 0.00 | 71 | 1010.3 |
| 20260509131748 | 18 | 77 | 17.7 | 27.4 | 0.00 | 0.00 | 0.00 | 71 | 1010.2 |
| 20260509131646 | 18 | 85 | 19.3 | 27.4 | 0.00 | 0.00 | 0.00 | 72 | 1010.2 |
| 20260509131548 | 18 | 61 | 14.5 | 27.4 | 0.00 | 0.00 | 0.00 | 71 | 1010.1 |
| 20260509131444 | 18 | 50 | 16.1 | 25.7 | 0.00 | 0.00 | 0.00 | 71 | 1010.2 |
| 20260509131340 | 18 | 130 | 19.3 | 25.7 | 0.00 | 0.00 | 0.00 | 70 | 1010.2 |
| 20260509131241 | 18 | 65 | 17.7 | 25.7 | 0.00 | 0.00 | 0.00 | 71 | 1010.2 |
| 20260509131140 | 18 | 111 | 12.9 | 24.1 | 0.00 | 0.00 | 0.00 | 71 | 1010.2 |
| 20260509131058 | 19 | 121 | 14.5 | 37.0 | 0.00 | 0.00 | 0.00 | 70 | 1010.6 |
| 20260509131037 | 18 | 80 | 8.0 | 24.1 | 0.00 | 0.00 | 0.00 | 72 | 1010.2 |
| 20260509130938 | 18 | 76 | 11.3 | 24.1 | 0.00 | 0.00 | 0.00 | 72 | 1010.2 |
| 20260509130921 | 19 | 69 | 14.5 | 37.0 | 0.00 | 0.00 | 0.00 | 70 | 1010.5 |
| 20260509130834 | 18 | 92 | 11.3 | 24.1 | 0.00 | 0.00 | 0.00 | 72 | 1010.3 |
| 20260509130739 | 18 | 117 | 9.7 | 24.1 | 0.00 | 0.00 | 0.00 | 72 | 1010.3 |
| 20260509130700 | 18 | 100 | 12.9 | 24.1 | 0.00 | 0.00 | 0.00 | 71 | 1010.3 |
| 20260509130617 | 18 | 110 | 14.5 | 24.1 | 0.00 | 0.00 | 0.00 | 70 | 1010.3 |
| 20260509130331 | 18 | 75 | 14.5 | 24.1 | 0.00 | 0.00 | 0.00 | 71 | 1010.3 |
| 20260509130232 | 18 | 100 | 12.9 | 24.1 | 0.00 | 0.00 | 0.00 | 71 | 1010.3 |
| 20260509130129 | 18 | 110 | 11.3 | 22.5 | 0.00 | 0.00 | 0.00 | 71 | 1010.3 |
| 20260509130024 | 18 | 104 | 12.9 | 25.7 | 0.00 | 0.00 | 0.00 | 71 | 1010.4 |
| 20260509130005 | 19 | 101 | 14.5 | 29.0 | 0.00 | 0.00 | 0.00 | 69 | 1010.4 |
| 20260509125943 | 19 | 142 | 16.1 | 29.0 | 0.00 | 0.00 | 0.00 | 69 | 1010.4 |
| 20260509125925 | 18 | 83 | 16.1 | 25.7 | 0.00 | 0.00 | 0.00 | 70 | 1010.4 |
| 20260509125824 | 18 | 90 | 11.3 | 25.7 | 0.00 | 0.00 | 0.00 | 72 | 1010.4 |
| 20260509125742 | 18 | 133 | 11.3 | 25.7 | 0.00 | 0.00 | 0.00 | 72 | 1010.4 |
| 20260509125703 | 18 | 96 | 12.9 | 25.7 | 0.00 | 0.00 | 0.00 | 71 | 1010.4 |
| 20260509125421 | 18 | 74 | 12.9 | 25.7 | 0.00 | 0.00 | 0.00 | 70 | 1010.5 |
| 20260509125326 | 18 | 98 | 17.7 | 25.7 | 0.00 | 0.00 | 0.00 | 70 | 1010.5 |
| 20260509125245 | 18 | 114 | 16.1 | 25.7 | 0.00 | 0.00 | 0.00 | 70 | 1010.6 |
| 20260509125204 | 18 | 74 | 12.9 | 32.2 | 0.00 | 0.00 | 0.00 | 70 | 1010.5 |
| 20260509124952 | 20 | 92 | 16.1 | 29.0 | 0.00 | 0.00 | 0.00 | 69 | 1010.4 |
| 20260509124913 | 18 | 97 | 14.5 | 32.2 | 0.00 | 0.00 | 0.00 | 70 | 1010.5 |
| 20260509124814 | 18 | 95 | 12.9 | 32.2 | 0.00 | 0.00 | 0.00 | 70 | 1010.5 |
| 20260509124710 | 18 | 110 | 14.5 | 32.2 | 0.00 | 0.00 | 0.00 | 70 | 1010.6 |
| 20260509124651 | 20 | 90 | 17.7 | 37.0 | 0.00 | 0.00 | 0.00 | 70 | 1010.3 |
| 20260509124614 | 18 | 117 | 14.5 | 32.2 | 0.00 | 0.00 | 0.00 | 69 | 1010.5 |
| 20260509124514 | 18 | 117 | 16.1 | 32.2 | 0.00 | 0.00 | 0.00 | 69 | 1010.6 |
| 20260509124410 | 18 | 128 | 16.1 | 32.2 | 0.00 | 0.00 | 0.00 | 69 | 1010.6 |
| 20260509124308 | 19 | 67 | 12.9 | 32.2 | 0.00 | 0.00 | 0.00 | 69 | 1010.5 |
| 20260509124206 | 19 | 70 | 9.7 | 32.2 | 0.00 | 0.00 | 0.00 | 71 | 1010.6 |
| 20260509124107 | 19 | 101 | 16.1 | 32.2 | 0.00 | 0.00 | 0.00 | 70 | 1010.5 |
| 20260509124026 | 19 | 77 | 14.5 | 32.2 | 0.00 | 0.00 | 0.00 | 70 | 1010.5 |
| 20260509123940 | 19 | 107 | 9.7 | 32.2 | 0.00 | 0.00 | 0.00 | 70 | 1010.5 |
| 20260509123900 | 19 | 71 | 8.0 | 32.2 | 0.00 | 0.00 | 0.00 | 72 | 1010.5 |
| 20260509123658 | 19 | 101 | 6.4 | 32.2 | 0.00 | 0.00 | 0.00 | 71 | 1010.6 |
| 20260509123557 | 18 | 90 | 11.3 | 32.2 | 0.00 | 0.00 | 0.00 | 71 | 1010.4 |
| 20260509123529 | 20 | 137 | 14.5 | 29.0 | 0.00 | 0.00 | 0.00 | 68 | 1010.4 |
| 20260509123457 | 18 | 76 | 16.1 | 32.2 | 0.00 | 0.00 | 0.00 | 70 | 1010.5 |
| 20260509123353 | 19 | 92 | 16.1 | 32.2 | 0.00 | 0.00 | 0.00 | 70 | 1010.6 |
| 20260509123256 | 19 | 74 | 14.5 | 27.4 | 0.00 | 0.00 | 0.00 | 70 | 1010.6 |
| 20260509123214 | 19 | 117 | 12.9 | 27.4 | 0.00 | 0.00 | 0.00 | 71 | 1010.6 |
| 20260509123130 | 19 | 70 | 12.9 | 37.0 | 0.00 | 0.00 | 0.00 | 70 | 1010.6 |
| 20260509122906 | 19 | 155 | 16.1 | 37.0 | 0.00 | 0.00 | 0.00 | 70 | 1010.5 |
| 20260509122823 | 19 | 65 | 16.1 | 37.0 | 0.00 | 0.00 | 0.00 | 70 | 1010.5 |
| 20260509122621 | 20 | 111 | 16.1 | 27.4 | 0.00 | 0.00 | 0.00 | 67 | 1010.6 |
| 20260509122545 | 19 | 100 | 12.9 | 37.0 | 0.00 | 0.00 | 0.00 | 70 | 1010.4 |
| 20260509122447 | 19 | 124 | 12.9 | 37.0 | 0.00 | 0.00 | 0.00 | 70 | 1010.4 |
| 20260509122340 | 19 | 93 | 17.7 | 37.0 | 0.00 | 0.00 | 0.00 | 70 | 1010.5 |
| 20260509122239 | 19 | 114 | 19.3 | 37.0 | 0.00 | 0.00 | 0.00 | 69 | 1010.4 |
| 20260509122216 | 20 | 93 | 8.0 | 22.5 | 0.00 | 0.00 | 0.00 | 71 | 1010.8 |
| 20260509122140 | 19 | 113 | 16.1 | 37.0 | 0.00 | 0.00 | 0.00 | 68 | 1010.5 |
| 20260509122038 | 19 | 109 | 16.1 | 30.6 | 0.00 | 0.00 | 0.00 | 69 | 1010.4 |
| 20260509121948 | 19 | 102 | 11.3 | 30.6 | 0.00 | 0.00 | 0.00 | 69 | 1010.4 |
| 20260509121906 | 19 | 126 | 14.5 | 30.6 | 0.00 | 0.00 | 0.00 | 69 | 1010.4 |
| 20260509121823 | 19 | 135 | 17.7 | 30.6 | 0.00 | 0.00 | 0.00 | 69 | 1010.4 |
| 20260509121743 | 19 | 86 | 17.7 | 29.0 | 0.00 | 0.00 | 0.00 | 69 | 1010.5 |
| 20260509121659 | 19 | 98 | 17.7 | 29.0 | 0.00 | 0.00 | 0.00 | 69 | 1010.6 |
| 20260509121251 | 19 | 93 | 17.7 | 25.7 | 0.00 | 0.00 | 0.00 | 69 | 1010.4 |
| 20260509121208 | 19 | 99 | 16.1 | 25.7 | 0.00 | 0.00 | 0.00 | 69 | 1010.5 |
| 20260509121112 | 20 | 99 | 12.9 | 25.7 | 0.00 | 0.00 | 0.00 | 69 | 1010.4 |
| 20260509120925 | 20 | 111 | 12.9 | 25.7 | 0.00 | 0.00 | 0.00 | 70 | 1010.4 |
| 20260509120841 | 20 | 116 | 14.5 | 25.7 | 0.00 | 0.00 | 0.00 | 70 | 1010.4 |
| 20260509120759 | 20 | 110 | 14.5 | 25.7 | 0.00 | 0.00 | 0.00 | 68 | 1010.3 |
| 20260509120517 | 20 | 119 | 16.1 | 29.0 | 0.00 | 0.00 | 0.00 | 69 | 1010.3 |
| 20260509120417 | 20 | 142 | 16.1 | 37.0 | 0.00 | 0.00 | 0.00 | 69 | 1010.3 |
| 20260509120314 | 20 | 102 | 14.5 | 37.0 | 0.00 | 0.00 | 0.00 | 69 | 1010.3 |
| 20260509120231 | 20 | 123 | 14.5 | 37.0 | 0.00 | 0.00 | 0.00 | 69 | 1010.3 |
| 20260509120149 | 20 | 87 | 12.9 | 37.0 | 0.00 | 0.00 | 0.00 | 71 | 1010.3 |
| 20260509120105 | 20 | 136 | 9.7 | 37.0 | 0.00 | 0.00 | 0.00 | 71 | 1010.3 |
| 20260509115808 | 20 | 100 | 17.7 | 37.0 | 0.00 | 0.00 | 0.00 | 69 | 1010.4 |
| 20260509115706 | 20 | 119 | 17.7 | 37.0 | 0.00 | 0.00 | 0.00 | 69 | 1010.4 |
| 20260509115605 | 20 | 95 | 17.7 | 37.0 | 0.00 | 0.00 | 0.00 | 68 | 1010.5 |
| 20260509115523 | 19 | 138 | 11.3 | 25.7 | 0.00 | 0.00 | 0.00 | 67 | 1010.9 |
| 20260509115506 | 20 | 95 | 14.5 | 37.0 | 0.00 | 0.00 | 0.00 | 69 | 1010.4 |
| 20260509115403 | 20 | 102 | 14.5 | 33.8 | 0.00 | 0.00 | 0.00 | 68 | 1010.5 |
| 20260509115302 | 20 | 117 | 17.7 | 33.8 | 0.00 | 0.00 | 0.00 | 68 | 1010.4 |
| 20260509115201 | 20 | 78 | 17.7 | 33.8 | 0.00 | 0.00 | 0.00 | 68 | 1010.4 |
| 20260509115059 | 20 | 74 | 17.7 | 33.8 | 0.00 | 0.00 | 0.00 | 68 | 1010.5 |
| 20260509114958 | 20 | 106 | 17.7 | 30.6 | 0.00 | 0.00 | 0.00 | 68 | 1010.4 |
| 20260509114905 | 20 | 129 | 14.5 | 30.6 | 0.00 | 0.00 | 0.00 | 68 | 1010.5 |
| 20260509114822 | 20 | 70 | 12.9 | 24.1 | 0.00 | 0.00 | 0.00 | 69 | 1010.4 |
| 20260509114741 | 20 | 62 | 14.5 | 29.0 | 0.00 | 0.00 | 0.00 | 69 | 1010.4 |
| 20260509114528 | 19 | 100 | 14.5 | 24.1 | 0.00 | 0.00 | 0.00 | 68 | 1011.2 |
| 20260509114455 | 20 | 93 | 16.1 | 29.0 | 0.00 | 0.00 | 0.00 | 69 | 1010.3 |
| 20260509114432 | 19 | 129 | 12.9 | 24.1 | 0.00 | 0.00 | 0.00 | 69 | 1011.1 |
| 20260509114400 | 20 | 72 | 12.9 | 29.0 | 0.00 | 0.00 | 0.00 | 69 | 1010.4 |
| 20260509114317 | 20 | 111 | 9.7 | 29.0 | 0.00 | 0.00 | 0.00 | 69 | 1010.4 |
| 20260509114234 | 20 | 74 | 11.3 | 29.0 | 0.00 | 0.00 | 0.00 | 68 | 1010.4 |
| 20260509113947 | 20 | 114 | 14.5 | 29.0 | 0.00 | 0.00 | 0.00 | 69 | 1010.5 |
| 20260509113905 | 19 | 116 | 14.5 | 27.4 | 0.00 | 0.00 | 0.00 | 68 | 1011.3 |
| 20260509113846 | 20 | 95 | 14.5 | 29.0 | 0.00 | 0.00 | 0.00 | 67 | 1010.5 |
| 20260509113818 | 19 | 61 | 14.5 | 27.4 | 0.00 | 0.00 | 0.00 | 68 | 1011.2 |
| 20260509113754 | 20 | 117 | 14.5 | 29.0 | 0.00 | 0.00 | 0.00 | 67 | 1010.6 |
| 20260509113709 | 20 | 104 | 17.7 | 27.4 | 0.00 | 0.00 | 0.00 | 68 | 1010.6 |
| 20260509113623 | 20 | 80 | 17.7 | 27.4 | 0.00 | 0.00 | 0.00 | 68 | 1010.6 |
| 20260509113340 | 20 | 61 | 17.7 | 27.4 | 0.00 | 0.00 | 0.00 | 69 | 1010.6 |
| 20260509113239 | 20 | 107 | 17.7 | 27.4 | 0.00 | 0.00 | 0.00 | 68 | 1010.7 |
| 20260509113138 | 20 | 90 | 17.7 | 27.4 | 0.00 | 0.00 | 0.00 | 68 | 1010.7 |
| 20260509113046 | 20 | 57 | 16.1 | 27.4 | 0.00 | 0.00 | 0.00 | 68 | 1010.7 |
| 20260509112940 | 20 | 102 | 12.9 | 25.7 | 0.00 | 0.00 | 0.00 | 70 | 1010.6 |
| 20260509112855 | 20 | 103 | 8.0 | 22.5 | 0.00 | 0.00 | 0.00 | 70 | 1010.7 |
| 20260509112811 | 20 | 119 | 4.8 | 22.5 | 0.00 | 0.00 | 0.00 | 71 | 1010.7 |
| 20260509112601 | 18 | 71 | 12.9 | 25.7 | 0.00 | 0.00 | 0.00 | 70 | 1011.1 |
| 20260509112529 | 20 | 101 | 11.3 | 25.7 | 0.00 | 0.00 | 0.00 | 69 | 1010.8 |
| 20260509112436 | 20 | 130 | 12.9 | 25.7 | 0.00 | 0.00 | 0.00 | 69 | 1010.8 |
| 20260509112351 | 20 | 63 | 14.5 | 25.7 | 0.00 | 0.00 | 0.00 | 67 | 1010.9 |
| 20260509112308 | 20 | 126 | 9.7 | 25.7 | 0.00 | 0.00 | 0.00 | 68 | 1010.9 |
| 20260509112042 | 20 | 119 | 11.3 | 25.7 | 0.00 | 0.00 | 0.00 | 68 | 1010.9 |
| 20260509112001 | 20 | 92 | 12.9 | 25.7 | 0.00 | 0.00 | 0.00 | 67 | 1010.9 |
| 20260509111916 | 20 | 114 | 12.9 | 25.7 | 0.00 | 0.00 | 0.00 | 67 | 1010.9 |
| 20260509111717 | 20 | 92 | 12.9 | 25.7 | 0.00 | 0.00 | 0.00 | 67 | 1010.9 |
| 20260509111630 | 18 | 108 | 9.7 | 24.1 | 0.00 | 0.00 | 0.00 | 72 | 1011.0 |
| 20260509111614 | 20 | 121 | 14.5 | 25.7 | 0.00 | 0.00 | 0.00 | 66 | 1010.9 |
| 20260509111514 | 20 | 130 | 14.5 | 20.9 | 0.00 | 0.00 | 0.00 | 66 | 1010.9 |
| 20260509111410 | 20 | 96 | 12.9 | 20.9 | 0.00 | 0.00 | 0.00 | 68 | 1010.9 |
| 20260509111313 | 20 | 135 | 9.7 | 22.5 | 0.00 | 0.00 | 0.00 | 68 | 1010.9 |
| 20260509111209 | 20 | 130 | 8.0 | 22.5 | 0.00 | 0.00 | 0.00 | 69 | 1010.9 |
| 20260509111129 | 18 | 100 | 14.5 | 24.1 | 0.00 | 0.00 | 0.00 | 70 | 1011.1 |
| 20260509111108 | 20 | 100 | 14.5 | 22.5 | 0.00 | 0.00 | 0.00 | 68 | 1010.9 |
| 20260509111008 | 19 | 113 | 12.9 | 25.7 | 0.00 | 0.00 | 0.00 | 67 | 1011.0 |
| 20260509110909 | 19 | 71 | 12.9 | 25.7 | 0.00 | 0.00 | 0.00 | 67 | 1011.0 |
| 20260509110840 | 18 | 92 | 12.9 | 24.1 | 0.00 | 0.00 | 0.00 | 71 | 1011.2 |
| 20260509110815 | 19 | 119 | 12.9 | 25.7 | 0.00 | 0.00 | 0.00 | 68 | 1011.0 |
| 20260509110729 | 19 | 123 | 14.5 | 25.7 | 0.00 | 0.00 | 0.00 | 67 | 1011.0 |
| 20260509110647 | 19 | 116 | 14.5 | 25.7 | 0.00 | 0.00 | 0.00 | 68 | 1011.0 |
| 20260509110359 | 19 | 76 | 11.3 | 25.7 | 0.00 | 0.00 | 0.00 | 68 | 1011.0 |
| 20260509110257 | 19 | 130 | 14.5 | 25.7 | 0.00 | 0.00 | 0.00 | 67 | 1011.0 |
| 20260509110158 | 19 | 121 | 12.9 | 25.7 | 0.00 | 0.00 | 0.00 | 67 | 1011.0 |
| 20260509110137 | 18 | 103 | 16.1 | 24.1 | 0.00 | 0.00 | 0.00 | 70 | 1011.2 |
| 20260509110105 | 19 | 131 | 14.5 | 25.7 | 0.00 | 0.00 | 0.00 | 68 | 1011.0 |
| 20260509105956 | 19 | 93 | 14.5 | 25.7 | 0.00 | 0.00 | 0.00 | 66 | 1011.0 |
| 20260509105927 | 18 | 88 | 11.3 | 24.1 | 0.00 | 0.00 | 0.00 | 70 | 1011.3 |
| 20260509105855 | 19 | 103 | 14.5 | 25.7 | 0.00 | 0.00 | 0.00 | 68 | 1011.0 |
| 20260509105754 | 19 | 86 | 14.5 | 22.5 | 0.00 | 0.00 | 0.00 | 68 | 1011.0 |
| 20260509105659 | 19 | 96 | 11.3 | 24.1 | 0.00 | 0.00 | 0.00 | 68 | 1011.1 |
| 20260509105617 | 19 | 112 | 11.3 | 24.1 | 0.00 | 0.00 | 0.00 | 68 | 1011.1 |
| 20260509105534 | 19 | 0 | 11.3 | 24.1 | 0.00 | 0.00 | 0.00 | 68 | 1011.1 |
| 20260509105448 | 19 | 88 | 12.9 | 24.1 | 0.00 | 0.00 | 0.00 | 67 | 1011.1 |
| 20260509105407 | 19 | 95 | 14.5 | 24.1 | 0.00 | 0.00 | 0.00 | 69 | 1011.2 |
| 20260509105325 | 19 | 110 | 16.1 | 24.1 | 0.00 | 0.00 | 0.00 | 68 | 1011.1 |
| 20260509104914 | 19 | 86 | 16.1 | 27.4 | 0.00 | 0.00 | 0.00 | 68 | 1011.2 |
| 20260509104832 | 19 | 111 | 14.5 | 27.4 | 0.00 | 0.00 | 0.00 | 68 | 1011.2 |
| 20260509104748 | 19 | 111 | 8.0 | 27.4 | 0.00 | 0.00 | 0.00 | 69 | 1011.2 |
| 20260509104706 | 19 | 115 | 9.7 | 27.4 | 0.00 | 0.00 | 0.00 | 69 | 1011.2 |
| 20260509104238 | 19 | 104 | 14.5 | 27.4 | 0.00 | 0.00 | 0.00 | 69 | 1011.2 |
| 20260509104228 | 17 | 63 | 11.3 | 25.7 | 0.00 | 0.00 | 0.00 | 71 | 1011.3 |
| 20260509104157 | 17 | 104 | 11.3 | 25.7 | 0.00 | 0.00 | 0.00 | 73 | 1011.3 |
| 20260509104136 | 18 | 109 | 17.7 | 27.4 | 0.00 | 0.00 | 0.00 | 68 | 1011.2 |
| 20260509104037 | 18 | 96 | 17.7 | 27.4 | 0.00 | 0.00 | 0.00 | 68 | 1011.1 |
| 20260509103933 | 18 | 84 | 16.1 | 27.4 | 0.00 | 0.00 | 0.00 | 68 | 1011.1 |
| 20260509103830 | 18 | 119 | 17.7 | 24.1 | 0.00 | 0.00 | 0.00 | 67 | 1011.1 |
| 20260509103735 | 19 | 98 | 16.1 | 25.7 | 0.00 | 0.00 | 0.00 | 67 | 1011.2 |
| 20260509103652 | 19 | 121 | 14.5 | 25.7 | 0.00 | 0.00 | 0.00 | 68 | 1011.1 |
| 20260509103606 | 19 | 130 | 12.9 | 25.7 | 0.00 | 0.00 | 0.00 | 69 | 1011.1 |
| 20260509103524 | 19 | 102 | 14.5 | 25.7 | 0.00 | 0.00 | 0.00 | 70 | 1011.0 |
| 20260509103442 | 19 | 138 | 14.5 | 25.7 | 0.00 | 0.00 | 0.00 | 69 | 1011.0 |
| 20260509103214 | 18 | 142 | 9.7 | 25.7 | 0.00 | 0.00 | 0.00 | 69 | 1011.1 |
| 20260509102946 | 18 | 105 | 14.5 | 25.7 | 0.00 | 0.00 | 0.00 | 69 | 1011.0 |
| 20260509102901 | 18 | 110 | 11.3 | 24.1 | 0.00 | 0.00 | 0.00 | 71 | 1011.0 |
| 20260509102639 | 17 | 117 | 12.9 | 24.1 | 0.00 | 0.00 | 0.00 | 73 | 1011.5 |
| 20260509102617 | 18 | 79 | 9.7 | 24.1 | 0.00 | 0.00 | 0.00 | 70 | 1011.1 |
| 20260509102520 | 18 | 82 | 14.5 | 24.1 | 0.00 | 0.00 | 0.00 | 71 | 1011.1 |
| 20260509102507 | 17 | 133 | 14.5 | 24.1 | 0.00 | 0.00 | 0.00 | 73 | 1011.5 |
| 20260509102415 | 18 | 65 | 14.5 | 24.1 | 0.00 | 0.00 | 0.00 | 70 | 1011.1 |
| 20260509102330 | 18 | 95 | 16.1 | 24.1 | 0.00 | 0.00 | 0.00 | 70 | 1011.1 |
| 20260509102212 | 18 | 88 | 14.5 | 24.1 | 0.00 | 0.00 | 0.00 | 71 | 1011.1 |
| 20260509102128 | 18 | 104 | 14.5 | 24.1 | 0.00 | 0.00 | 0.00 | 70 | 1011.1 |
| 20260509102048 | 18 | 107 | 14.5 | 24.1 | 0.00 | 0.00 | 0.00 | 70 | 1011.2 |
| 20260509102003 | 18 | 93 | 12.9 | 24.1 | 0.00 | 0.00 | 0.00 | 70 | 1011.1 |
| 20260509101603 | 18 | 67 | 16.1 | 24.1 | 0.00 | 0.00 | 0.00 | 69 | 1011.1 |
| 20260509101510 | 18 | 121 | 12.9 | 24.1 | 0.00 | 0.00 | 0.00 | 71 | 1011.2 |
| 20260509101427 | 18 | 72 | 12.9 | 24.1 | 0.00 | 0.00 | 0.00 | 70 | 1011.1 |
| 20260509101342 | 18 | 65 | 14.5 | 24.1 | 0.00 | 0.00 | 0.00 | 70 | 1011.2 |
| 20260509101059 | 18 | 128 | 9.7 | 24.1 | 0.00 | 0.00 | 0.00 | 71 | 1011.2 |
| 20260509101012 | 18 | 88 | 11.3 | 22.5 | 0.00 | 0.00 | 0.00 | 71 | 1011.1 |
| 20260509100930 | 18 | 83 | 14.5 | 24.1 | 0.00 | 0.00 | 0.00 | 70 | 1011.2 |
| 20260509100833 | 18 | 90 | 14.5 | 24.1 | 0.00 | 0.00 | 0.00 | 70 | 1011.2 |
| 20260509100748 | 18 | 103 | 14.5 | 24.1 | 0.00 | 0.00 | 0.00 | 70 | 1011.2 |
| 20260509100511 | 18 | 106 | 14.5 | 24.1 | 0.00 | 0.00 | 0.00 | 70 | 1011.2 |
| 20260509100427 | 18 | 70 | 11.3 | 24.1 | 0.00 | 0.00 | 0.00 | 71 | 1011.2 |
| 20260509100146 | 18 | 134 | 11.3 | 24.1 | 0.00 | 0.00 | 0.00 | 71 | 1011.2 |
| 20260509100103 | 18 | 85 | 11.3 | 24.1 | 0.00 | 0.00 | 0.00 | 70 | 1011.3 |
| 20260509100007 | 18 | 110 | 11.3 | 24.1 | 0.00 | 0.00 | 0.00 | 72 | 1011.3 |
| 20260509095925 | 17 | 110 | 11.3 | 22.5 | 0.00 | 0.00 | 0.00 | 71 | 1011.3 |
| 20260509095843 | 17 | 121 | 14.5 | 22.5 | 0.00 | 0.00 | 0.00 | 71 | 1011.3 |
| 20260509095759 | 17 | 109 | 14.5 | 25.7 | 0.00 | 0.00 | 0.00 | 70 | 1011.5 |
| 20260509095338 | 17 | 88 | 12.9 | 25.7 | 0.00 | 0.00 | 0.00 | 71 | 1011.3 |
| 20260509095322 | 17 | 69 | 12.9 | 29.0 | 0.00 | 0.00 | 0.00 | 75 | 1011.3 |
| 20260509095235 | 17 | 88 | 12.9 | 25.7 | 0.00 | 0.00 | 0.00 | 71 | 1011.3 |
| 20260509095137 | 17 | 93 | 11.3 | 25.7 | 0.00 | 0.00 | 0.00 | 71 | 1011.5 |
| 20260509095030 | 17 | 119 | 11.3 | 25.7 | 0.00 | 0.00 | 0.00 | 71 | 1011.3 |
| 20260509094928 | 17 | 103 | 12.9 | 25.7 | 0.00 | 0.00 | 0.00 | 72 | 1011.3 |
| 20260509094839 | 17 | 104 | 16.1 | 25.7 | 0.00 | 0.00 | 0.00 | 71 | 1011.3 |
| 20260509094756 | 17 | 93 | 14.5 | 25.7 | 0.00 | 0.00 | 0.00 | 71 | 1011.3 |
| 20260509094712 | 17 | 88 | 9.7 | 24.1 | 0.00 | 0.00 | 0.00 | 72 | 1011.5 |
| 20260509094633 | 17 | 111 | 12.9 | 24.1 | 0.00 | 0.00 | 0.00 | 71 | 1011.5 |
| 20260509094546 | 17 | 79 | 12.9 | 24.1 | 0.00 | 0.00 | 0.00 | 73 | 1011.6 |
| 20260509094327 | 17 | 108 | 14.5 | 24.1 | 0.00 | 0.00 | 0.00 | 71 | 1011.5 |
| 20260509094104 | 17 | 69 | 11.3 | 24.1 | 0.00 | 0.00 | 0.00 | 73 | 1011.5 |
| 20260509093817 | 17 | 72 | 19.3 | 24.1 | 0.00 | 0.00 | 0.00 | 70 | 1011.5 |
| 20260509093714 | 18 | 113 | 17.7 | 24.1 | 0.00 | 0.00 | 0.00 | 71 | 1011.7 |
| 20260509093637 | 17 | 88 | 9.7 | 20.9 | 0.00 | 0.00 | 0.00 | 75 | 1011.5 |
| 20260509093613 | 18 | 108 | 12.9 | 24.1 | 0.00 | 0.00 | 0.00 | 73 | 1011.6 |
| 20260509093512 | 17 | 80 | 11.3 | 24.1 | 0.00 | 0.00 | 0.00 | 74 | 1011.6 |
| 20260509093415 | 17 | 115 | 8.0 | 25.7 | 0.00 | 0.00 | 0.00 | 74 | 1011.6 |
| 20260509093405 | 16 | 107 | 8.0 | 17.7 | 0.00 | 0.00 | 0.00 | 77 | 1011.5 |
| 20260509093312 | 17 | 113 | 9.7 | 25.7 | 0.00 | 0.00 | 0.00 | 75 | 1011.5 |
| 20260509093213 | 17 | 57 | 12.9 | 25.7 | 0.00 | 0.00 | 0.00 | 74 | 1011.5 |
| 20260509093202 | 16 | 104 | 12.9 | 17.7 | 0.00 | 0.00 | 0.00 | 77 | 1011.3 |
| 20260509093117 | 17 | 129 | 12.9 | 25.7 | 0.00 | 0.00 | 0.00 | 75 | 1011.5 |
| 20260509093033 | 17 | 46 | 14.5 | 25.7 | 0.00 | 0.00 | 0.00 | 74 | 1011.5 |
| 20260509092951 | 17 | 76 | 12.9 | 29.0 | 0.00 | 0.00 | 0.00 | 75 | 1011.5 |
| 20260509092707 | 17 | 63 | 16.1 | 29.0 | 0.00 | 0.00 | 0.00 | 74 | 1011.3 |
| 20260509092606 | 17 | 69 | 12.9 | 29.0 | 0.00 | 0.00 | 0.00 | 74 | 1011.2 |
| 20260509092507 | 17 | 54 | 9.7 | 29.0 | 0.00 | 0.00 | 0.00 | 74 | 1011.2 |
| 20260509092400 | 17 | 63 | 9.7 | 29.0 | 0.00 | 0.00 | 0.00 | 74 | 1011.2 |
| 20260509092257 | 17 | 78 | 14.5 | 29.0 | 0.00 | 0.00 | 0.00 | 74 | 1011.2 |
| 20260509092156 | 17 | 69 | 16.1 | 29.0 | 0.00 | 0.00 | 0.00 | 72 | 1011.2 |
| 20260509092055 | 17 | 96 | 17.7 | 29.0 | 0.00 | 0.00 | 0.00 | 73 | 1011.2 |
| 20260509091954 | 17 | 107 | 14.5 | 29.0 | 0.00 | 0.00 | 0.00 | 73 | 1011.3 |
| 20260509091856 | 17 | 139 | 12.9 | 24.1 | 0.00 | 0.00 | 0.00 | 74 | 1011.5 |
| 20260509091756 | 17 | 117 | 9.7 | 24.1 | 0.00 | 0.00 | 0.00 | 74 | 1011.5 |
| 20260509091652 | 17 | 108 | 8.0 | 24.1 | 0.00 | 0.00 | 0.00 | 75 | 1011.5 |
| 20260509091602 | 17 | 29 | 9.7 | 24.1 | 0.00 | 0.00 | 0.00 | 76 | 1011.5 |
| 20260509091516 | 17 | 137 | 14.5 | 24.1 | 0.00 | 0.00 | 0.00 | 75 | 1011.5 |
| 20260509091431 | 17 | 99 | 12.9 | 24.1 | 0.00 | 0.00 | 0.00 | 74 | 1011.6 |
| 20260509091335 | 17 | 129 | 8.0 | 24.1 | 0.00 | 0.00 | 0.00 | 76 | 1011.5 |
| 20260509091238 | 17 | 126 | 9.7 | 20.9 | 0.00 | 0.00 | 0.00 | 75 | 1011.6 |
| 20260509090944 | 17 | 129 | 8.0 | 20.9 | 0.00 | 0.00 | 0.00 | 75 | 1011.6 |
| 20260509090935 | 16 | 126 | 12.9 | 20.9 | 0.00 | 0.00 | 0.00 | 79 | 1011.2 |
| 20260509090858 | 17 | 119 | 6.4 | 17.7 | 0.00 | 0.00 | 0.00 | 77 | 1011.5 |
| 20260509090815 | 16 | 105 | 8.0 | 17.7 | 0.00 | 0.00 | 0.00 | 77 | 1011.3 |
| 20260509090732 | 16 | 72 | 9.7 | 17.7 | 0.00 | 0.00 | 0.00 | 76 | 1011.5 |
| 20260509090504 | 16 | 101 | 8.0 | 17.7 | 0.00 | 0.00 | 0.00 | 78 | 1011.5 |
| 20260509090422 | 16 | 119 | 11.3 | 17.7 | 0.00 | 0.00 | 0.00 | 76 | 1011.5 |
| 20260509090139 | 16 | 104 | 9.7 | 20.9 | 0.00 | 0.00 | 0.00 | 77 | 1011.3 |
| 20260509090037 | 16 | 121 | 9.7 | 24.1 | 0.00 | 0.00 | 0.00 | 78 | 1011.3 |
| 20260509090007 | 15 | 77 | 11.3 | 20.9 | 0.00 | 0.00 | 0.00 | 80 | 1011.5 |
| 20260509085935 | 16 | 103 | 9.7 | 24.1 | 0.00 | 0.00 | 0.00 | 77 | 1011.3 |
| 20260509085920 | 16 | 63 | 12.9 | 20.9 | 0.00 | 0.00 | 0.00 | 80 | 1011.6 |
| 20260509085828 | 16 | 111 | 9.7 | 24.1 | 0.00 | 0.00 | 0.00 | 77 | 1011.3 |
| 20260509085732 | 16 | 105 | 8.0 | 24.1 | 0.00 | 0.00 | 0.00 | 78 | 1011.3 |
| 20260509085633 | 16 | 69 | 8.0 | 24.1 | 0.00 | 0.00 | 0.00 | 77 | 1011.3 |
| 20260509085552 | 15 | 74 | 11.3 | 20.9 | 0.00 | 0.00 | 0.00 | 80 | 1011.8 |
| 20260509085530 | 16 | 102 | 6.4 | 24.1 | 0.00 | 0.00 | 0.00 | 78 | 1011.5 |
| 20260509085430 | 16 | 72 | 9.7 | 24.1 | 0.00 | 0.00 | 0.00 | 79 | 1011.5 |
| 20260509085357 | 15 | 65 | 11.3 | 20.9 | 0.00 | 0.00 | 0.00 | 81 | 1011.7 |
| 20260509085328 | 16 | 128 | 11.3 | 24.1 | 0.00 | 0.00 | 0.00 | 77 | 1011.5 |
| 20260509085229 | 16 | 97 | 12.9 | 24.1 | 0.00 | 0.00 | 0.00 | 78 | 1011.5 |
| 20260509085217 | 15 | 90 | 11.3 | 22.5 | 0.00 | 0.00 | 0.00 | 81 | 1011.6 |
| 20260509085127 | 16 | 123 | 11.3 | 24.1 | 0.00 | 0.00 | 0.00 | 78 | 1011.5 |
| 20260509085101 | 15 | 124 | 11.3 | 25.7 | 0.00 | 0.00 | 0.00 | 81 | 1011.8 |
| 20260509085024 | 16 | 113 | 9.7 | 22.5 | 0.00 | 0.00 | 0.00 | 78 | 1011.5 |
| 20260509084924 | 16 | 129 | 11.3 | 22.5 | 0.00 | 0.00 | 0.00 | 77 | 1011.3 |
| 20260509084822 | 16 | 63 | 12.9 | 22.5 | 0.00 | 0.00 | 0.00 | 78 | 1011.5 |
| 20260509084730 | 16 | 88 | 11.3 | 22.5 | 0.00 | 0.00 | 0.00 | 79 | 1011.3 |
| 20260509084634 | 16 | 67 | 9.7 | 19.3 | 0.00 | 0.00 | 0.00 | 80 | 1011.5 |
| 20260509084551 | 16 | 109 | 8.0 | 19.3 | 0.00 | 0.00 | 0.00 | 80 | 1011.3 |
| 20260509084504 | 16 | 83 | 11.3 | 19.3 | 0.00 | 0.00 | 0.00 | 79 | 1011.3 |
| 20260509084315 | 16 | 57 | 8.0 | 20.9 | 0.00 | 0.00 | 0.00 | 79 | 1011.3 |
| 20260509084230 | 16 | 79 | 8.0 | 20.9 | 0.00 | 0.00 | 0.00 | 80 | 1011.2 |
| 20260509084126 | 16 | 93 | 8.0 | 20.9 | 0.00 | 0.00 | 0.00 | 79 | 1011.2 |
| 20260509084044 | 16 | 139 | 8.0 | 20.9 | 0.00 | 0.00 | 0.00 | 79 | 1011.2 |
| 20260509083958 | 16 | 138 | 9.7 | 20.9 | 0.00 | 0.00 | 0.00 | 79 | 1011.2 |
| 20260509083916 | 16 | 88 | 9.7 | 20.9 | 0.00 | 0.00 | 0.00 | 79 | 1011.2 |
| 20260509083832 | 16 | 134 | 12.9 | 20.9 | 0.00 | 0.00 | 0.00 | 79 | 1011.2 |
| 20260509083611 | 16 | 109 | 12.9 | 20.9 | 0.00 | 0.00 | 0.00 | 80 | 1011.3 |
| 20260509083525 | 16 | 93 | 11.3 | 20.9 | 0.00 | 0.00 | 0.00 | 80 | 1011.5 |
| 20260509083442 | 16 | 116 | 9.7 | 20.9 | 0.00 | 0.00 | 0.00 | 80 | 1011.5 |
| 20260509083358 | 16 | 85 | 9.7 | 20.9 | 0.00 | 0.00 | 0.00 | 81 | 1011.6 |
| 20260509082952 | 16 | 110 | 12.9 | 20.9 | 0.00 | 0.00 | 0.00 | 80 | 1011.6 |
| 20260509082654 | 16 | 98 | 12.9 | 20.9 | 0.00 | 0.00 | 0.00 | 80 | 1011.7 |
| 20260509082612 | 16 | 98 | 11.3 | 20.9 | 0.00 | 0.00 | 0.00 | 80 | 1011.7 |
| 20260509082530 | 16 | 71 | 11.3 | 20.9 | 0.00 | 0.00 | 0.00 | 80 | 1011.7 |
| 20260509082446 | 16 | 50 | 11.3 | 20.9 | 0.00 | 0.00 | 0.00 | 81 | 1011.8 |
| 20260509082404 | 15 | 101 | 12.9 | 20.9 | 0.00 | 0.00 | 0.00 | 80 | 1011.7 |
| 20260509082141 | 15 | 87 | 9.7 | 20.9 | 0.00 | 0.00 | 0.00 | 82 | 1011.8 |
| 20260509082056 | 15 | 84 | 9.7 | 20.9 | 0.00 | 0.00 | 0.00 | 81 | 1011.8 |
| 20260509082010 | 15 | 90 | 9.7 | 20.9 | 0.00 | 0.00 | 0.00 | 82 | 1011.8 |
| 20260509081746 | 15 | 93 | 11.3 | 20.9 | 0.00 | 0.00 | 0.00 | 81 | 1011.7 |
| 20260509081651 | 15 | 138 | 11.3 | 22.5 | 0.00 | 0.00 | 0.00 | 81 | 1011.6 |
| 20260509081417 | 15 | 111 | 12.9 | 22.5 | 0.00 | 0.00 | 0.00 | 81 | 1011.7 |
| 20260509081334 | 15 | 119 | 14.5 | 25.7 | 0.00 | 0.00 | 0.00 | 80 | 1011.8 |
| 20260509081051 | 15 | 111 | 11.3 | 25.7 | 0.00 | 0.00 | 0.00 | 82 | 1011.8 |
| 20260509081008 | 15 | 87 | 9.7 | 25.7 | 0.00 | 0.00 | 0.00 | 82 | 1011.8 |
| 20260509080930 | 15 | 128 | 11.3 | 25.7 | 0.00 | 0.00 | 0.00 | 82 | 1011.8 |
| 20260509080847 | 15 | 59 | 14.5 | 25.7 | 0.00 | 0.00 | 0.00 | 81 | 1011.8 |
| 20260509080804 | 15 | 102 | 16.1 | 25.7 | 0.00 | 0.00 | 0.00 | 81 | 1011.8 |
| 20260509080530 | 15 | 67 | 16.1 | 25.7 | 0.00 | 0.00 | 0.00 | 81 | 1011.7 |
| 20260509080232 | 15 | 86 | 16.1 | 24.1 | 0.00 | 0.00 | 0.00 | 82 | 1011.8 |
| 20260509080217 | 15 | 93 | 12.9 | 24.1 | 0.00 | 0.00 | 0.00 | 84 | 1011.8 |
| 20260509080126 | 15 | 81 | 14.5 | 24.1 | 0.00 | 0.00 | 0.00 | 82 | 1011.6 |
| 20260509080031 | 15 | 78 | 12.9 | 24.1 | 0.00 | 0.00 | 0.00 | 84 | 1011.7 |
| 20260509075946 | 15 | 77 | 14.5 | 24.1 | 0.00 | 0.00 | 0.00 | 83 | 1011.8 |
| 20260509075904 | 15 | 88 | 14.5 | 24.1 | 0.00 | 0.00 | 0.00 | 83 | 1011.7 |
| 20260509075623 | 15 | 75 | 12.9 | 24.1 | 0.00 | 0.00 | 0.00 | 84 | 1011.8 |
| 20260509075518 | 15 | 90 | 11.3 | 24.1 | 0.00 | 0.00 | 0.00 | 84 | 1011.9 |
| 20260509075418 | 15 | 86 | 9.7 | 24.1 | 0.00 | 0.00 | 0.00 | 85 | 1011.9 |
| 20260509075315 | 15 | 85 | 9.7 | 24.1 | 0.00 | 0.00 | 0.00 | 84 | 1011.9 |
| 20260509075215 | 15 | 104 | 14.5 | 24.1 | 0.00 | 0.00 | 0.00 | 83 | 1012.0 |
| 20260509075116 | 15 | 59 | 12.9 | 24.1 | 0.00 | 0.00 | 0.00 | 83 | 1012.0 |
| 20260509075100 | 15 | 77 | 8.0 | 19.3 | 0.00 | 0.00 | 0.00 | 86 | 1012.1 |
| 20260509075024 | 15 | 69 | 14.5 | 24.1 | 0.00 | 0.00 | 0.00 | 84 | 1012.0 |
| 20260509074902 | 15 | 84 | 14.5 | 24.1 | 0.00 | 0.00 | 0.00 | 84 | 1012.1 |
| 20260509074808 | 15 | 86 | 14.5 | 19.3 | 0.00 | 0.00 | 0.00 | 84 | 1012.0 |
| 20260509074709 | 15 | 115 | 12.9 | 19.3 | 0.00 | 0.00 | 0.00 | 84 | 1012.0 |
| 20260509074605 | 15 | 97 | 11.3 | 19.3 | 0.00 | 0.00 | 0.00 | 84 | 1012.1 |
| 20260509074502 | 15 | 59 | 8.0 | 17.7 | 0.00 | 0.00 | 0.00 | 85 | 1012.1 |
| 20260509074402 | 15 | 79 | 4.8 | 17.7 | 0.00 | 0.00 | 0.00 | 86 | 1012.1 |
| 20260509074306 | 15 | 84 | 6.4 | 19.3 | 0.00 | 0.00 | 0.00 | 86 | 1012.1 |
| 20260509074222 | 15 | 54 | 8.0 | 19.3 | 0.00 | 0.00 | 0.00 | 85 | 1012.1 |
| 20260509074142 | 15 | 93 | 9.7 | 19.3 | 0.00 | 0.00 | 0.00 | 85 | 1012.0 |
| 20260509073859 | 15 | 76 | 6.4 | 19.3 | 0.00 | 0.00 | 0.00 | 87 | 1012.1 |
| 20260509073804 | 15 | 93 | 8.0 | 19.3 | 0.00 | 0.00 | 0.00 | 87 | 1012.1 |
| 20260509073721 | 14 | 96 | 8.0 | 19.3 | 0.00 | 0.00 | 0.00 | 87 | 1012.1 |
| 20260509073636 | 14 | 110 | 9.7 | 19.3 | 0.00 | 0.00 | 0.00 | 88 | 1012.1 |
| 20260509073448 | 14 | 111 | 9.7 | 19.3 | 0.00 | 0.00 | 0.00 | 88 | 1012.2 |
| 20260509073349 | 14 | 102 | 6.4 | 14.5 | 0.00 | 0.00 | 0.00 | 89 | 1012.1 |
| 20260509073338 | 12 | 88 | 3.2 | 9.7 | 0.00 | 0.00 | 0.00 | 95 | 1012.2 |
| 20260509073247 | 14 | 82 | 6.4 | 14.5 | 0.00 | 0.00 | 0.00 | 90 | 1012.1 |
| 20260509073146 | 14 | 101 | 6.4 | 12.9 | 0.00 | 0.00 | 0.00 | 90 | 1012.1 |
| 20260509073047 | 14 | 88 | 6.4 | 12.9 | 0.00 | 0.00 | 0.00 | 90 | 1012.2 |
| 20260509072944 | 14 | 144 | 6.4 | 12.9 | 0.00 | 0.00 | 0.00 | 91 | 1012.2 |
| 20260509072843 | 14 | 69 | 6.4 | 12.9 | 0.00 | 0.00 | 0.00 | 91 | 1012.2 |
| 20260509072801 | 11 | 339 | 4.8 | 6.4 | 0.00 | 0.00 | 0.00 | 94 | 1012.4 |
| 20260509072740 | 14 | 67 | 8.0 | 12.9 | 0.00 | 0.00 | 0.00 | 92 | 1012.2 |
| 20260509072640 | 13 | 93 | 8.0 | 12.9 | 0.00 | 0.00 | 0.00 | 93 | 1012.1 |
| 20260509072555 | 11 | 238 | 3.2 | 4.8 | 0.00 | 0.00 | 0.00 | 94 | 1012.6 |
| 20260509072541 | 13 | 69 | 8.0 | 12.9 | 0.00 | 0.00 | 0.00 | 94 | 1012.2 |
| 20260509072340 | 13 | 93 | 4.8 | 11.3 | 0.00 | 0.00 | 0.00 | 95 | 1012.2 |
| 20260509072319 | 10 | 309 | 3.2 | 4.8 | 0.00 | 0.00 | 0.00 | 94 | 1012.5 |
| 20260509072236 | 13 | 72 | 4.8 | 9.7 | 0.00 | 0.00 | 0.00 | 95 | 1012.2 |
| 20260509072217 | 10 | 341 | 3.2 | 6.4 | 0.00 | 0.00 | 0.00 | 94 | 1012.5 |
| 20260509072140 | 13 | 76 | 4.8 | 9.7 | 0.00 | 0.00 | 0.00 | 95 | 1012.2 |
| 20260509072100 | 12 | 106 | 4.8 | 9.7 | 0.00 | 0.00 | 0.00 | 95 | 1012.2 |
| 20260509072015 | 12 | 63 | 4.8 | 9.7 | 0.00 | 0.00 | 0.00 | 95 | 1012.2 |
| 20260509071934 | 12 | 221 | 4.8 | 9.7 | 0.00 | 0.00 | 0.00 | 94 | 1012.2 |
| 20260509071708 | 12 | 80 | 4.8 | 9.7 | 0.00 | 0.00 | 0.00 | 95 | 1012.2 |
| 20260509071454 | 10 | 59 | 3.2 | 6.4 | 0.00 | 0.00 | 0.00 | 94 | 1012.5 |
| 20260509071428 | 12 | 113 | 1.6 | 4.8 | 0.00 | 0.00 | 0.00 | 94 | 1012.3 |
| 20260509071330 | 12 | 76 | 1.6 | 4.8 | 0.00 | 0.00 | 0.00 | 94 | 1012.3 |
| 20260509071226 | 12 | 34 | 1.6 | 4.8 | 0.00 | 0.00 | 0.00 | 94 | 1012.3 |
| 20260509071125 | 11 | 34 | 1.6 | 4.8 | 0.00 | 0.00 | 0.00 | 94 | 1012.3 |
| 20260509071024 | 11 | 57 | 3.2 | 6.4 | 0.00 | 0.00 | 0.00 | 94 | 1012.3 |
| 20260509070923 | 11 | 80 | 3.2 | 6.4 | 0.00 | 0.00 | 0.00 | 94 | 1012.3 |
| 20260509070824 | 11 | 61 | 3.2 | 6.4 | 0.00 | 0.00 | 0.00 | 94 | 1012.4 |
| 20260509070810 | 9 | 51 | 0.0 | 3.2 | 0.00 | 0.00 | 0.00 | 94 | 1012.6 |
| 20260509070742 | 9 | 238 | 0.0 | 3.2 | 0.00 | 0.00 | 0.00 | 94 | 1012.7 |
| 20260509070721 | 11 | 74 | 3.2 | 6.4 | 0.00 | 0.00 | 0.00 | 94 | 1012.3 |
| 20260509070632 | 11 | 17 | 3.2 | 6.4 | 0.00 | 0.00 | 0.00 | 94 | 1012.3 |
| 20260509070553 | 9 | 265 | 1.6 | 3.2 | 0.00 | 0.00 | 0.00 | 94 | 1012.6 |
| 20260509070518 | 11 | 9 | 3.2 | 6.4 | 0.00 | 0.00 | 0.00 | 94 | 1012.4 |
| 20260509070428 | 11 | 17 | 3.2 | 6.4 | 0.00 | 0.00 | 0.00 | 94 | 1012.4 |
| 20260509070344 | 11 | 56 | 3.2 | 6.4 | 0.00 | 0.00 | 0.00 | 94 | 1012.4 |
| 20260509070301 | 11 | 9 | 4.8 | 6.4 | 0.00 | 0.00 | 0.00 | 94 | 1012.4 |
| 20260509070013 | 11 | 312 | 4.8 | 6.4 | 0.00 | 0.00 | 0.00 | 94 | 1012.4 |
| 20260509065951 | 9 | 221 | 1.6 | 3.2 | 0.00 | 0.00 | 0.00 | 94 | 1012.7 |
| 20260509065911 | 11 | 312 | 3.2 | 4.8 | 0.00 | 0.00 | 0.00 | 94 | 1012.5 |
| 20260509065828 | 11 | 316 | 3.2 | 4.8 | 0.00 | 0.00 | 0.00 | 94 | 1012.5 |
| 20260509065745 | 11 | 298 | 3.2 | 4.8 | 0.00 | 0.00 | 0.00 | 94 | 1012.6 |
| 20260509065507 | 11 | 284 | 3.2 | 4.8 | 0.00 | 0.00 | 0.00 | 94 | 1012.5 |
| 20260509065425 | 11 | 279 | 3.2 | 4.8 | 0.00 | 0.00 | 0.00 | 94 | 1012.6 |
| 20260509065342 | 11 | 305 | 3.2 | 4.8 | 0.00 | 0.00 | 0.00 | 94 | 1012.6 |
| 20260509065305 | 11 | 298 | 3.2 | 4.8 | 0.00 | 0.00 | 0.00 | 94 | 1012.5 |
| 20260509065220 | 11 | 325 | 3.2 | 4.8 | 0.00 | 0.00 | 0.00 | 94 | 1012.5 |
| 20260509064958 | 10 | 9 | 3.2 | 6.4 | 0.00 | 0.00 | 0.00 | 94 | 1012.5 |
| 20260509064736 | 10 | 319 | 3.2 | 6.4 | 0.00 | 0.00 | 0.00 | 94 | 1012.5 |
| 20260509064457 | 10 | 63 | 3.2 | 6.4 | 0.00 | 0.00 | 0.00 | 94 | 1012.5 |
| 20260509064410 | 10 | 132 | 3.2 | 6.4 | 0.00 | 0.00 | 0.00 | 94 | 1012.5 |
| 20260509064328 | 10 | 76 | 3.2 | 6.4 | 0.00 | 0.00 | 0.00 | 94 | 1012.5 |
| 20260509064244 | 10 | 51 | 4.8 | 6.4 | 0.00 | 0.00 | 0.00 | 94 | 1012.4 |
| 20260509064051 | 10 | 56 | 4.8 | 6.4 | 0.00 | 0.00 | 0.00 | 94 | 1012.5 |
| 20260509063947 | 10 | 69 | 4.8 | 6.4 | 0.00 | 0.00 | 0.00 | 94 | 1012.4 |
| 20260509063855 | 10 | 41 | 3.2 | 6.4 | 0.00 | 0.00 | 0.00 | 94 | 1012.4 |
| 20260509063813 | 10 | 45 | 3.2 | 4.8 | 0.00 | 0.00 | 0.00 | 94 | 1012.4 |
| 20260509063729 | 10 | 65 | 3.2 | 4.8 | 0.00 | 0.00 | 0.00 | 94 | 1012.4 |
| 20260509063650 | 10 | 59 | 3.2 | 4.8 | 0.00 | 0.00 | 0.00 | 94 | 1012.4 |
| 20260509063604 | 10 | 65 | 3.2 | 4.8 | 0.00 | 0.00 | 0.00 | 94 | 1012.4 |
| 20260509063517 | 10 | 38 | 1.6 | 3.2 | 0.00 | 0.00 | 0.00 | 94 | 1012.5 |
| 20260509063435 | 9 | 41 | 1.6 | 3.2 | 0.00 | 0.00 | 0.00 | 94 | 1012.6 |
| 20260509063351 | 9 | 51 | 1.6 | 3.2 | 0.00 | 0.00 | 0.00 | 94 | 1012.6 |
| 20260509063311 | 9 | 44 | 0.0 | 3.2 | 0.00 | 0.00 | 0.00 | 94 | 1012.6 |
| 20260509062902 | 9 | 126 | 0.0 | 3.2 | 0.00 | 0.00 | 0.00 | 94 | 1012.7 |
| 20260509062640 | 9 | 265 | 1.6 | 3.2 | 0.00 | 0.00 | 0.00 | 94 | 1012.6 |
| 20260509062213 | 9 | 205 | 1.6 | 3.2 | 0.00 | 0.00 | 0.00 | 94 | 1012.6 |
| 20260509062110 | 9 | 291 | 1.6 | 3.2 | 0.00 | 0.00 | 0.00 | 94 | 1012.6 |
| 20260509062049 | 8 | 26 | 3.2 | 3.2 | 0.00 | 0.00 | 0.00 | 94 | 1012.3 |
| 20260509062012 | 9 | 34 | 1.6 | 1.6 | 0.00 | 0.00 | 0.00 | 94 | 1012.6 |
| 20260509061910 | 9 | 178 | 1.6 | 1.6 | 0.00 | 0.00 | 0.00 | 94 | 1012.6 |
| 20260509061828 | 9 | 234 | 0.0 | 3.2 | 0.00 | 0.00 | 0.00 | 94 | 1012.5 |
| 20260509061746 | 8 | 212 | 0.0 | 3.2 | 0.00 | 0.00 | 0.00 | 94 | 1012.5 |
| 20260509061504 | 8 | 265 | 0.0 | 3.2 | 0.00 | 0.00 | 0.00 | 94 | 1012.5 |
| 20260509061420 | 8 | 59 | 1.6 | 3.2 | 0.00 | 0.00 | 0.00 | 93 | 1012.3 |
| 20260509061404 | 8 | 67 | 0.0 | 3.2 | 0.00 | 0.00 | 0.00 | 94 | 1012.5 |
| 20260509061320 | 8 | 46 | 1.6 | 3.2 | 0.00 | 0.00 | 0.00 | 93 | 1012.4 |
| 20260509061300 | 8 | 67 | 0.0 | 3.2 | 0.00 | 0.00 | 0.00 | 94 | 1012.5 |
| 20260509061202 | 8 | 41 | 0.0 | 3.2 | 0.00 | 0.00 | 0.00 | 94 | 1012.4 |
| 20260509061058 | 8 | 51 | 1.6 | 3.2 | 0.00 | 0.00 | 0.00 | 94 | 1012.4 |
| 20260509060957 | 8 | 325 | 1.6 | 3.2 | 0.00 | 0.00 | 0.00 | 94 | 1012.4 |
| 20260509060905 | 8 | 17 | 1.6 | 3.2 | 0.00 | 0.00 | 0.00 | 94 | 1012.4 |
| 20260509060823 | 8 | 67 | 1.6 | 3.2 | 0.00 | 0.00 | 0.00 | 94 | 1012.4 |
| 20260509060739 | 8 | 26 | 1.6 | 3.2 | 0.00 | 0.00 | 0.00 | 94 | 1012.4 |
| 20260509060648 | 8 | 19 | 3.2 | 3.2 | 0.00 | 0.00 | 0.00 | 94 | 1012.3 |
| 20260509060352 | 8 | 24 | 3.2 | 3.2 | 0.00 | 0.00 | 0.00 | 94 | 1012.4 |
| 20260509060313 | 7 | 309 | 1.6 | 3.2 | 0.00 | 0.00 | 0.00 | 93 | 1012.3 |
| 20260509060250 | 8 | 36 | 1.6 | 3.2 | 0.00 | 0.00 | 0.00 | 94 | 1012.3 |
| 20260509060212 | 7 | 51 | 0.0 | 3.2 | 0.00 | 0.00 | 0.00 | 93 | 1012.3 |
| 20260509060152 | 8 | 57 | 1.6 | 3.2 | 0.00 | 0.00 | 0.00 | 94 | 1012.3 |
| 20260509060109 | 8 | 61 | 1.6 | 3.2 | 0.00 | 0.00 | 0.00 | 94 | 1012.3 |
| 20260509060013 | 8 | 51 | 1.6 | 3.2 | 0.00 | 0.00 | 0.00 | 94 | 1012.3 |
| 20260509055927 | 8 | 67 | 1.6 | 3.2 | 0.00 | 0.00 | 0.00 | 93 | 1012.3 |
| 20260509055844 | 8 | 38 | 1.6 | 3.2 | 0.00 | 0.00 | 0.00 | 93 | 1012.4 |
| 20260509055619 | 8 | 67 | 1.6 | 3.2 | 0.00 | 0.00 | 0.00 | 93 | 1012.4 |
| 20260509055410 | 7 | 41 | 1.6 | 3.2 | 0.00 | 0.00 | 0.00 | 93 | 1012.3 |
| 20260509055340 | 8 | 34 | 1.6 | 3.2 | 0.00 | 0.00 | 0.00 | 93 | 1012.4 |
| 20260509055238 | 8 | 9 | 1.6 | 3.2 | 0.00 | 0.00 | 0.00 | 93 | 1012.3 |
| 20260509055135 | 8 | 34 | 1.6 | 3.2 | 0.00 | 0.00 | 0.00 | 93 | 1012.3 |
| 20260509055108 | 7 | 93 | 1.6 | 1.6 | 0.00 | 0.00 | 0.00 | 93 | 1012.2 |
| 20260509055036 | 8 | 76 | 1.6 | 1.6 | 0.00 | 0.00 | 0.00 | 93 | 1012.4 |
| 20260509054930 | 8 | 265 | 1.6 | 1.6 | 0.00 | 0.00 | 0.00 | 93 | 1012.4 |
| 20260509054830 | 8 | 212 | 1.6 | 1.6 | 0.00 | 0.00 | 0.00 | 93 | 1012.4 |
| 20260509054730 | 7 | 215 | 0.0 | 1.6 | 0.00 | 0.00 | 0.00 | 93 | 1012.4 |
| 20260509054632 | 7 | 137 | 0.0 | 1.6 | 0.00 | 0.00 | 0.00 | 93 | 1012.4 |
| 20260509054548 | 7 | 93 | 1.6 | 1.6 | 0.00 | 0.00 | 0.00 | 93 | 1012.3 |
| 20260509054510 | 7 | 126 | 0.0 | 3.2 | 0.00 | 0.00 | 0.00 | 93 | 1012.3 |
| 20260509054425 | 7 | 93 | 0.0 | 3.2 | 0.00 | 0.00 | 0.00 | 93 | 1012.3 |
| 20260509054344 | 7 | 26 | 0.0 | 3.2 | 0.00 | 0.00 | 0.00 | 93 | 1012.3 |
| 20260509054303 | 7 | 9 | 1.6 | 3.2 | 0.00 | 0.00 | 0.00 | 93 | 1012.3 |
| 20260509054044 | 7 | 26 | 0.0 | 3.2 | 0.00 | 0.00 | 0.00 | 93 | 1012.2 |
| 20260509053636 | 7 | 51 | 1.6 | 3.2 | 0.00 | 0.00 | 0.00 | 93 | 1012.3 |
| 20260509053556 | 7 | 44 | 1.6 | 1.6 | 0.00 | 0.00 | 0.00 | 93 | 1012.3 |
| 20260509053410 | 7 | 153 | 1.6 | 1.6 | 0.00 | 0.00 | 0.00 | 93 | 1012.3 |
| 20260509053310 | 7 | 26 | 0.0 | 1.6 | 0.00 | 0.00 | 0.00 | 93 | 1012.3 |
| 20260509053227 | 7 | 19 | 0.0 | 1.6 | 0.00 | 0.00 | 0.00 | 93 | 1012.2 |
| 20260509053147 | 7 | 51 | 1.6 | 1.6 | 0.00 | 0.00 | 0.00 | 93 | 1012.3 |
| 20260509052913 | 7 | 34 | 0.0 | 1.6 | 0.00 | 0.00 | 0.00 | 93 | 1012.2 |
| 20260509052830 | 7 | 67 | 0.0 | 1.6 | 0.00 | 0.00 | 0.00 | 93 | 1012.2 |
| 20260509052748 | 7 | 93 | 0.0 | 1.6 | 0.00 | 0.00 | 0.00 | 93 | 1012.2 |
| 20260509052600 | 7 | 51 | 0.0 | 1.6 | 0.00 | 0.00 | 0.00 | 93 | 1012.2 |
| 20260509052459 | 7 | 51 | 0.0 | 1.6 | 0.00 | 0.00 | 0.00 | 93 | 1012.2 |
| 20260509052402 | 7 | 76 | 0.0 | 1.6 | 0.00 | 0.00 | 0.00 | 93 | 1012.2 |
| 20260509052258 | 7 | 67 | 0.0 | 1.6 | 0.00 | 0.00 | 0.00 | 93 | 1012.3 |
| 20260509052232 | 7 | 61 | 0.0 | 3.2 | 0.00 | 0.00 | 0.00 | 93 | 1012.3 |
| 20260509052148 | 7 | 93 | 0.0 | 1.6 | 0.00 | 0.00 | 0.00 | 93 | 1012.3 |
| 20260509052100 | 7 | 67 | 1.6 | 1.6 | 0.00 | 0.00 | 0.00 | 93 | 1012.2 |
| 20260509052021 | 7 | 76 | 1.6 | 1.6 | 0.00 | 0.00 | 0.00 | 93 | 1012.3 |
| 20260509051741 | 7 | 119 | 0.0 | 1.6 | 0.00 | 0.00 | 0.00 | 93 | 1012.3 |
| 20260509051701 | 7 | 178 | 1.6 | 1.6 | 0.00 | 0.00 | 0.00 | 93 | 1012.4 |
| 20260509051621 | 7 | 51 | 1.6 | 1.6 | 0.00 | 0.00 | 0.00 | 93 | 1012.3 |
| 20260509051418 | 7 | 309 | 1.6 | 3.2 | 0.00 | 0.00 | 0.00 | 93 | 1012.3 |
| 20260509051337 | 7 | 67 | 0.0 | 1.6 | 0.00 | 0.00 | 0.00 | 93 | 1012.3 |
| 20260509051235 | 7 | 41 | 0.0 | 1.6 | 0.00 | 0.00 | 0.00 | 93 | 1012.3 |
| 20260509051138 | 7 | 9 | 1.6 | 1.6 | 0.00 | 0.00 | 0.00 | 93 | 1012.2 |
| 20260509051100 | 7 | 232 | 0.0 | 1.6 | 0.00 | 0.00 | 0.00 | 93 | 1012.2 |
| 20260509051033 | 7 | 34 | 1.6 | 1.6 | 0.00 | 0.00 | 0.00 | 93 | 1012.3 |
| 20260509050933 | 7 | 51 | 0.0 | 1.6 | 0.00 | 0.00 | 0.00 | 93 | 1012.2 |
| 20260509050831 | 7 | 93 | 0.0 | 1.6 | 0.00 | 0.00 | 0.00 | 93 | 1012.3 |
| 20260509050742 | 7 | 93 | 0.0 | 1.6 | 0.00 | 0.00 | 0.00 | 93 | 1012.2 |
| 20260509050703 | 7 | 51 | 1.6 | 3.2 | 0.00 | 0.00 | 0.00 | 93 | 1012.3 |
| 20260509050422 | 7 | 93 | 0.0 | 3.2 | 0.00 | 0.00 | 0.00 | 93 | 1012.3 |
| 20260509050315 | 7 | 51 | 0.0 | 3.2 | 0.00 | 0.00 | 0.00 | 93 | 1012.3 |
| 20260509050215 | 7 | 265 | 0.0 | 3.2 | 0.00 | 0.00 | 0.00 | 93 | 1012.3 |
| 20260509050150 | 7 | 111 | 0.0 | 1.6 | 0.00 | 0.00 | 0.00 | 92 | 1012.2 |
| 20260509050111 | 7 | 9 | 0.0 | 3.2 | 0.00 | 0.00 | 0.00 | 93 | 1012.3 |
| 20260509050017 | 7 | 93 | 1.6 | 3.2 | 0.00 | 0.00 | 0.00 | 93 | 1012.3 |
| 20260509045940 | 7 | 9 | 1.6 | 3.2 | 0.00 | 0.00 | 0.00 | 93 | 1012.3 |
| 20260509045657 | 7 | 334 | 1.6 | 3.2 | 0.00 | 0.00 | 0.00 | 93 | 1012.3 |
| 20260509045556 | 7 | 9 | 1.6 | 3.2 | 0.00 | 0.00 | 0.00 | 93 | 1012.3 |
| 20260509045454 | 7 | 41 | 1.6 | 3.2 | 0.00 | 0.00 | 0.00 | 93 | 1012.2 |
| 20260509045350 | 7 | 22 | 0.0 | 3.2 | 0.00 | 0.00 | 0.00 | 93 | 1012.2 |
| 20260509045324 | 7 | 178 | 1.6 | 3.2 | 0.00 | 0.00 | 0.00 | 92 | 1012.2 |
| 20260509045249 | 7 | 34 | 0.0 | 1.6 | 0.00 | 0.00 | 0.00 | 93 | 1012.2 |
| 20260509045148 | 7 | 26 | 0.0 | 1.6 | 0.00 | 0.00 | 0.00 | 93 | 1012.2 |
| 20260509045128 | 7 | 205 | 1.6 | 6.4 | 0.00 | 0.00 | 0.00 | 92 | 1012.3 |
| 20260509045051 | 7 | 232 | 0.0 | 1.6 | 0.00 | 0.00 | 0.00 | 93 | 1012.2 |
| 20260509045016 | 7 | 232 | 0.0 | 1.6 | 0.00 | 0.00 | 0.00 | 93 | 1012.2 |
| 20260509044726 | 7 | 232 | 0.0 | 1.6 | 0.00 | 0.00 | 0.00 | 93 | 1012.3 |
| 20260509044614 | 7 | 232 | 0.0 | 1.6 | 0.00 | 0.00 | 0.00 | 93 | 1012.3 |
| 20260509044559 | 7 | 178 | 1.6 | 3.2 | 0.00 | 0.00 | 0.00 | 92 | 1012.3 |
| 20260509044516 | 7 | 178 | 0.0 | 1.6 | 0.00 | 0.00 | 0.00 | 93 | 1012.3 |
| 20260509044425 | 7 | 153 | 1.6 | 3.2 | 0.00 | 0.00 | 0.00 | 92 | 1012.3 |
| 20260509044410 | 7 | 178 | 0.0 | 1.6 | 0.00 | 0.00 | 0.00 | 93 | 1012.3 |
| 20260509044309 | 7 | 9 | 0.0 | 1.6 | 0.00 | 0.00 | 0.00 | 93 | 1012.3 |
| 20260509044246 | 7 | 51 | 0.0 | 1.6 | 0.00 | 0.00 | 0.00 | 93 | 1012.2 |
| 20260509044210 | 7 | 265 | 0.0 | 1.6 | 0.00 | 0.00 | 0.00 | 92 | 1012.3 |
| 20260509044144 | 7 | 178 | 0.0 | 3.2 | 0.00 | 0.00 | 0.00 | 92 | 1012.2 |
| 20260509044106 | 7 | 51 | 0.0 | 1.6 | 0.00 | 0.00 | 0.00 | 93 | 1012.2 |
| 20260509044005 | 7 | 178 | 1.6 | 1.6 | 0.00 | 0.00 | 0.00 | 92 | 1012.2 |
| 20260509043904 | 7 | 178 | 1.6 | 1.6 | 0.00 | 0.00 | 0.00 | 92 | 1012.2 |
| 20260509043846 | 7 | 217 | 0.0 | 4.8 | 0.00 | 0.00 | 0.00 | 92 | 1012.3 |
| 20260509043803 | 7 | 61 | 0.0 | 1.6 | 0.00 | 0.00 | 0.00 | 92 | 1012.2 |
| 20260509043657 | 7 | 137 | 0.0 | 1.6 | 0.00 | 0.00 | 0.00 | 92 | 1012.2 |